Wetterdaten: Donnerstag, 15.05.2014
Datum Zeit Temp. Aussen +5cm Feuchte Auss Luftdruck Regen Sonnenschein Regendauer UV Solar Windben
15.05.2014 00:00 7,2 C 5,6 C 86 % 1031,6 hPa 0,0 l/m 0 min 0 min 0,0 UV-I 0 W/m 0,0 km/h (0 Bft)
15.05.2014 00:02 7,2 C 5,6 C 86 % 1031,6 hPa 0,0 l/m 0 min 0 min 0,0 UV-I 0 W/m 0,0 km/h (0 Bft)
15.05.2014 00:06 7,2 C 5,6 C 85 % 1031,7 hPa 0,0 l/m 0 min 0 min 0,0 UV-I 0 W/m 0,0 km/h (0 Bft)
15.05.2014 00:08 7,2 C 5,6 C 85 % 1031,7 hPa 0,0 l/m 0 min 0 min 0,0 UV-I 0 W/m 0,0 km/h (0 Bft)
15.05.2014 00:10 7,1 C 5,6 C 85 % 1031,8 hPa 0,0 l/m 0 min 0 min 0,0 UV-I 0 W/m 0,0 km/h (0 Bft)
15.05.2014 00:12 7,0 C 5,6 C 86 % 1031,8 hPa 0,0 l/m 0 min 0 min 0,0 UV-I 0 W/m 2,6 km/h (1 Bft)
15.05.2014 00:14 6,9 C 5,6 C 86 % 1031,8 hPa 0,0 l/m 0 min 0 min 0,0 UV-I 0 W/m 0,0 km/h (0 Bft)
15.05.2014 00:16 6,9 C 5,6 C 86 % 1031,8 hPa 0,0 l/m 0 min 0 min 0,0 UV-I 0 W/m 7,7 km/h (2 Bft)
15.05.2014 00:18 6,9 C 5,6 C 86 % 1031,9 hPa 0,0 l/m 0 min 0 min 0,0 UV-I 0 W/m 5,1 km/h (1 Bft)
15.05.2014 00:20 7,0 C 5,6 C 86 % 1031,8 hPa 0,0 l/m 0 min 0 min 0,0 UV-I 0 W/m 0,0 km/h (0 Bft)
15.05.2014 00:22 7,0 C 5,6 C 86 % 1031,9 hPa 0,0 l/m 0 min 0 min 0,0 UV-I 0 W/m 0,0 km/h (0 Bft)
15.05.2014 00:24 6,9 C 5,6 C 86 % 1031,9 hPa 0,0 l/m 0 min 0 min 0,0 UV-I 0 W/m 5,1 km/h (1 Bft)
15.05.2014 00:26 6,9 C 5,6 C 86 % 1031,9 hPa 0,0 l/m 0 min 0 min 0,0 UV-I 0 W/m 0,0 km/h (0 Bft)
15.05.2014 00:28 6,9 C 5,0 C 86 % 1031,9 hPa 0,0 l/m 0 min 0 min 0,0 UV-I 0 W/m 0,0 km/h (0 Bft)
15.05.2014 00:30 6,9 C 5,0 C 86 % 1031,9 hPa 0,0 l/m 0 min 0 min 0,0 UV-I 0 W/m 5,1 km/h (1 Bft)
15.05.2014 00:32 6,8 C 5,0 C 86 % 1031,9 hPa 0,0 l/m 0 min 0 min 0,0 UV-I 0 W/m 0,0 km/h (0 Bft)
15.05.2014 00:34 6,8 C 5,0 C 86 % 1032,0 hPa 0,0 l/m 0 min 0 min 0,0 UV-I 0 W/m 0,0 km/h (0 Bft)
15.05.2014 00:36 6,8 C 5,0 C 86 % 1032,0 hPa 0,0 l/m 0 min 0 min 0,0 UV-I 0 W/m 2,6 km/h (1 Bft)
15.05.2014 00:38 6,9 C 5,6 C 86 % 1031,9 hPa 0,0 l/m 0 min 0 min 0,0 UV-I 0 W/m 0,0 km/h (0 Bft)
15.05.2014 00:40 6,9 C 5,0 C 86 % 1032,0 hPa 0,0 l/m 0 min 0 min 0,0 UV-I 0 W/m 0,0 km/h (0 Bft)
15.05.2014 00:42 6,8 C 5,0 C 85 % 1032,0 hPa 0,0 l/m 0 min 0 min 0,0 UV-I 0 W/m 0,0 km/h (0 Bft)
15.05.2014 00:44 6,8 C 5,0 C 86 % 1032,0 hPa 0,0 l/m 0 min 0 min 0,0 UV-I 0 W/m 0,0 km/h (0 Bft)
15.05.2014 00:46 6,7 C 5,0 C 86 % 1032,1 hPa 0,0 l/m 0 min 0 min 0,0 UV-I 0 W/m 0,0 km/h (0 Bft)
15.05.2014 00:48 6,7 C 5,0 C 86 % 1032,1 hPa 0,0 l/m 0 min 0 min 0,0 UV-I 0 W/m 0,0 km/h (0 Bft)
15.05.2014 00:50 6,5 C 5,0 C 86 % 1032,1 hPa 0,0 l/m 0 min 0 min 0,0 UV-I 0 W/m 0,0 km/h (0 Bft)
15.05.2014 00:52 6,4 C 4,4 C 87 % 1032,1 hPa 0,0 l/m 0 min 0 min 0,0 UV-I 0 W/m 0,0 km/h (0 Bft)
15.05.2014 00:54 6,3 C 4,4 C 87 % 1032,1 hPa 0,0 l/m 0 min 0 min 0,0 UV-I 0 W/m 0,0 km/h (0 Bft)
15.05.2014 00:56 6,3 C 4,4 C 88 % 1032,1 hPa 0,0 l/m 0 min 0 min 0,0 UV-I 0 W/m 0,0 km/h (0 Bft)
15.05.2014 00:58 6,2 C 4,4 C 88 % 1032,1 hPa 0,0 l/m 0 min 0 min 0,0 UV-I 0 W/m 0,0 km/h (0 Bft)
15.05.2014 01:00 6,2 C 4,4 C 88 % 1032,1 hPa 0,0 l/m 0 min 0 min 0,0 UV-I 0 W/m 0,0 km/h (0 Bft)
15.05.2014 01:02 6,1 C 4,4 C 88 % 1032,1 hPa 0,0 l/m 0 min 0 min 0,0 UV-I 0 W/m 0,0 km/h (0 Bft)
15.05.2014 01:06 5,9 C 3,9 C 89 % 1032,1 hPa 0,0 l/m 0 min 0 min 0,0 UV-I 0 W/m 0,0 km/h (0 Bft)
15.05.2014 01:08 5,9 C 4,4 C 89 % 1032,1 hPa 0,0 l/m 0 min 0 min 0,0 UV-I 0 W/m 0,0 km/h (0 Bft)
15.05.2014 01:10 5,9 C 3,9 C 89 % 1032,2 hPa 0,0 l/m 0 min 0 min 0,0 UV-I 0 W/m 0,0 km/h (0 Bft)
15.05.2014 01:12 5,9 C 3,9 C 89 % 1032,2 hPa 0,0 l/m 0 min 0 min 0,0 UV-I 0 W/m 0,0 km/h (0 Bft)
15.05.2014 01:14 5,8 C 3,9 C 90 % 1032,2 hPa 0,0 l/m 0 min 0 min 0,0 UV-I 0 W/m 0,0 km/h (0 Bft)
15.05.2014 01:16 5,7 C 3,9 C 90 % 1032,2 hPa 0,0 l/m 0 min 0 min 0,0 UV-I 0 W/m 0,0 km/h (0 Bft)
15.05.2014 01:18 5,7 C 3,9 C 90 % 1032,2 hPa 0,0 l/m 0 min 0 min 0,0 UV-I 0 W/m 0,0 km/h (0 Bft)
15.05.2014 01:20 5,7 C 3,9 C 90 % 1032,2 hPa 0,0 l/m 0 min 0 min 0,0 UV-I 0 W/m 0,0 km/h (0 Bft)
15.05.2014 01:22 5,7 C 3,9 C 90 % 1032,3 hPa 0,0 l/m 0 min 0 min 0,0 UV-I 0 W/m 0,0 km/h (0 Bft)
15.05.2014 01:24 5,6 C 3,9 C 90 % 1032,3 hPa 0,0 l/m 0 min 0 min 0,0 UV-I 0 W/m 0,0 km/h (0 Bft)
15.05.2014 01:26 5,6 C 3,9 C 90 % 1032,3 hPa 0,0 l/m 0 min 0 min 0,0 UV-I 0 W/m 0,0 km/h (0 Bft)
15.05.2014 01:28 5,6 C 3,9 C 90 % 1032,3 hPa 0,0 l/m 0 min 0 min 0,0 UV-I 0 W/m 0,0 km/h (0 Bft)
15.05.2014 01:30 5,6 C 3,9 C 90 % 1032,3 hPa 0,0 l/m 0 min 0 min 0,0 UV-I 0 W/m 0,0 km/h (0 Bft)
15.05.2014 01:32 5,5 C 3,9 C 91 % 1032,3 hPa 0,0 l/m 0 min 0 min 0,0 UV-I 0 W/m 0,0 km/h (0 Bft)
15.05.2014 01:34 5,5 C 3,9 C 91 % 1032,4 hPa 0,0 l/m 0 min 0 min 0,0 UV-I 0 W/m 0,0 km/h (0 Bft)
15.05.2014 01:36 5,4 C 3,9 C 91 % 1032,4 hPa 0,0 l/m 0 min 0 min 0,0 UV-I 0 W/m 0,0 km/h (0 Bft)
15.05.2014 01:38 5,4 C 3,9 C 91 % 1032,4 hPa 0,0 l/m 0 min 0 min 0,0 UV-I 0 W/m 0,0 km/h (0 Bft)
15.05.2014 01:40 5,4 C 3,3 C 91 % 1032,4 hPa 0,0 l/m 0 min 0 min 0,0 UV-I 0 W/m 0,0 km/h (0 Bft)
15.05.2014 01:42 5,3 C 3,3 C 91 % 1032,4 hPa 0,0 l/m 0 min 0 min 0,0 UV-I 0 W/m 0,0 km/h (0 Bft)
15.05.2014 01:44 5,3 C 3,3 C 91 % 1032,4 hPa 0,0 l/m 0 min 0 min 0,0 UV-I 0 W/m 0,0 km/h (0 Bft)
15.05.2014 01:46 5,2 C 3,3 C 91 % 1032,5 hPa 0,0 l/m 0 min 0 min 0,0 UV-I 0 W/m 0,0 km/h (0 Bft)
15.05.2014 01:48 5,2 C 3,3 C 91 % 1032,5 hPa 0,0 l/m 0 min 0 min 0,0 UV-I 0 W/m 0,0 km/h (0 Bft)
15.05.2014 01:50 5,2 C 3,3 C 91 % 1032,4 hPa 0,0 l/m 0 min 0 min 0,0 UV-I 0 W/m 0,0 km/h (0 Bft)
15.05.2014 01:52 5,2 C 3,3 C 92 % 1032,4 hPa 0,0 l/m 0 min 0 min 0,0 UV-I 0 W/m 0,0 km/h (0 Bft)
15.05.2014 01:54 5,2 C 3,3 C 91 % 1032,4 hPa 0,0 l/m 0 min 0 min 0,0 UV-I 0 W/m 0,0 km/h (0 Bft)
15.05.2014 01:56 5,2 C 3,3 C 91 % 1032,4 hPa 0,0 l/m 0 min 0 min 0,0 UV-I 0 W/m 0,0 km/h (0 Bft)
15.05.2014 01:58 5,1 C 3,3 C 92 % 1032,4 hPa 0,0 l/m 0 min 0 min 0,0 UV-I 0 W/m 0,0 km/h (0 Bft)
15.05.2014 02:00 5,1 C 3,3 C 92 % 1032,3 hPa 0,0 l/m 0 min 0 min 0,0 UV-I 0 W/m 0,0 km/h (0 Bft)
15.05.2014 02:02 5,0 C 3,3 C 92 % 1032,3 hPa 0,0 l/m 0 min 0 min 0,0 UV-I 0 W/m 0,0 km/h (0 Bft)
15.05.2014 02:06 5,0 C 3,3 C 92 % 1032,4 hPa 0,0 l/m 0 min 0 min 0,0 UV-I 0 W/m 0,0 km/h (0 Bft)
15.05.2014 02:08 5,0 C 3,3 C 92 % 1032,3 hPa 0,0 l/m 0 min 0 min 0,0 UV-I 0 W/m 0,0 km/h (0 Bft)
15.05.2014 02:10 4,9 C 3,3 C 92 % 1032,3 hPa 0,0 l/m 0 min 0 min 0,0 UV-I 0 W/m 0,0 km/h (0 Bft)
15.05.2014 02:12 4,9 C 3,3 C 92 % 1032,4 hPa 0,0 l/m 0 min 0 min 0,0 UV-I 0 W/m 0,0 km/h (0 Bft)
15.05.2014 02:14 4,9 C 3,3 C 92 % 1032,4 hPa 0,0 l/m 0 min 0 min 0,0 UV-I 0 W/m 0,0 km/h (0 Bft)
15.05.2014 02:16 4,8 C 3,3 C 92 % 1032,4 hPa 0,0 l/m 0 min 0 min 0,0 UV-I 0 W/m 0,0 km/h (0 Bft)
15.05.2014 02:18 4,8 C 3,3 C 92 % 1032,4 hPa 0,0 l/m 0 min 0 min 0,0 UV-I 0 W/m 0,0 km/h (0 Bft)
15.05.2014 02:20 4,8 C 3,3 C 92 % 1032,4 hPa 0,0 l/m 0 min 0 min 0,0 UV-I 0 W/m 0,0 km/h (0 Bft)
15.05.2014 02:22 4,8 C 3,3 C 92 % 1032,4 hPa 0,0 l/m 0 min 0 min 0,0 UV-I 0 W/m 0,0 km/h (0 Bft)
15.05.2014 02:24 4,8 C 3,3 C 93 % 1032,4 hPa 0,0 l/m 0 min 0 min 0,0 UV-I 0 W/m 0,0 km/h (0 Bft)
15.05.2014 02:26 4,8 C 3,3 C 93 % 1032,4 hPa 0,0 l/m 0 min 0 min 0,0 UV-I 0 W/m 0,0 km/h (0 Bft)
15.05.2014 02:28 4,7 C 3,3 C 93 % 1032,4 hPa 0,0 l/m 0 min 0 min 0,0 UV-I 0 W/m 0,0 km/h (0 Bft)
15.05.2014 02:30 4,7 C 3,3 C 93 % 1032,3 hPa 0,0 l/m 0 min 0 min 0,0 UV-I 0 W/m 0,0 km/h (0 Bft)
15.05.2014 02:32 4,7 C 2,8 C 93 % 1032,3 hPa 0,0 l/m 0 min 0 min 0,0 UV-I 0 W/m 0,0 km/h (0 Bft)
15.05.2014 02:34 4,7 C 2,8 C 93 % 1032,3 hPa 0,0 l/m 0 min 0 min 0,0 UV-I 0 W/m 0,0 km/h (0 Bft)
15.05.2014 02:36 4,6 C 2,8 C 93 % 1032,3 hPa 0,0 l/m 0 min 0 min 0,0 UV-I 0 W/m 0,0 km/h (0 Bft)
15.05.2014 02:38 4,6 C 2,8 C 93 % 1032,3 hPa 0,0 l/m 0 min 0 min 0,0 UV-I 0 W/m 0,0 km/h (0 Bft)
15.05.2014 02:40 4,6 C 2,8 C 93 % 1032,3 hPa 0,0 l/m 0 min 0 min 0,0 UV-I 0 W/m 0,0 km/h (0 Bft)
15.05.2014 02:42 4,6 C 2,8 C 93 % 1032,3 hPa 0,0 l/m 0 min 0 min 0,0 UV-I 0 W/m 0,0 km/h (0 Bft)
15.05.2014 02:44 4,5 C 2,8 C 93 % 1032,3 hPa 0,0 l/m 0 min 0 min 0,0 UV-I 0 W/m 0,0 km/h (0 Bft)
15.05.2014 02:46 4,4 C 2,8 C 93 % 1032,3 hPa 0,0 l/m 0 min 0 min 0,0 UV-I 0 W/m 0,0 km/h (0 Bft)
15.05.2014 02:48 4,4 C 2,8 C 93 % 1032,3 hPa 0,0 l/m 0 min 0 min 0,0 UV-I 0 W/m 0,0 km/h (0 Bft)
15.05.2014 02:50 4,4 C 2,8 C 93 % 1032,4 hPa 0,0 l/m 0 min 0 min 0,0 UV-I 0 W/m 0,0 km/h (0 Bft)
15.05.2014 02:52 4,3 C 2,8 C 93 % 1032,4 hPa 0,0 l/m 0 min 0 min 0,0 UV-I 0 W/m 0,0 km/h (0 Bft)
15.05.2014 02:54 4,3 C 2,8 C 94 % 1032,4 hPa 0,0 l/m 0 min 0 min 0,0 UV-I 0 W/m 0,0 km/h (0 Bft)
15.05.2014 02:56 4,3 C 2,8 C 94 % 1032,4 hPa 0,0 l/m 0 min 0 min 0,0 UV-I 0 W/m 0,0 km/h (0 Bft)
15.05.2014 02:58 4,3 C 2,8 C 94 % 1032,4 hPa 0,0 l/m 0 min 0 min 0,0 UV-I 0 W/m 0,0 km/h (0 Bft)
15.05.2014 03:00 4,3 C 2,8 C 94 % 1032,5 hPa 0,0 l/m 0 min 0 min 0,0 UV-I 0 W/m 0,0 km/h (0 Bft)
15.05.2014 03:02 4,3 C 2,8 C 94 % 1032,4 hPa 0,0 l/m 0 min 0 min 0,0 UV-I 0 W/m 0,0 km/h (0 Bft)
15.05.2014 03:06 4,3 C 2,8 C 94 % 1032,4 hPa 0,0 l/m 0 min 0 min 0,0 UV-I 0 W/m 0,0 km/h (0 Bft)
15.05.2014 03:08 4,3 C 2,8 C 94 % 1032,3 hPa 0,0 l/m 0 min 0 min 0,0 UV-I 0 W/m 0,0 km/h (0 Bft)
15.05.2014 03:10 4,3 C 2,8 C 94 % 1032,4 hPa 0,0 l/m 0 min 0 min 0,0 UV-I 0 W/m 0,0 km/h (0 Bft)
15.05.2014 03:12 4,3 C 2,8 C 94 % 1032,4 hPa 0,0 l/m 0 min 0 min 0,0 UV-I 0 W/m 0,0 km/h (0 Bft)
15.05.2014 03:14 4,3 C 2,8 C 94 % 1032,4 hPa 0,0 l/m 0 min 0 min 0,0 UV-I 0 W/m 0,0 km/h (0 Bft)
15.05.2014 03:16 4,3 C 2,8 C 94 % 1032,3 hPa 0,0 l/m 0 min 0 min 0,0 UV-I 0 W/m 0,0 km/h (0 Bft)
15.05.2014 03:18 4,3 C 2,8 C 94 % 1032,3 hPa 0,0 l/m 0 min 0 min 0,0 UV-I 0 W/m 0,0 km/h (0 Bft)
15.05.2014 03:20 4,3 C 2,8 C 94 % 1032,3 hPa 0,0 l/m 0 min 0 min 0,0 UV-I 0 W/m 0,0 km/h (0 Bft)
15.05.2014 03:22 4,3 C 2,8 C 94 % 1032,4 hPa 0,0 l/m 0 min 0 min 0,0 UV-I 0 W/m 0,0 km/h (0 Bft)
15.05.2014 03:24 4,3 C 2,8 C 95 % 1032,3 hPa 0,0 l/m 0 min 0 min 0,0 UV-I 0 W/m 0,0 km/h (0 Bft)
15.05.2014 03:26 4,3 C 2,8 C 95 % 1032,3 hPa 0,0 l/m 0 min 0 min 0,0 UV-I 0 W/m 0,0 km/h (0 Bft)
15.05.2014 03:28 4,3 C 2,8 C 95 % 1032,3 hPa 0,0 l/m 0 min 0 min 0,0 UV-I 0 W/m 0,0 km/h (0 Bft)
15.05.2014 03:30 4,2 C 2,8 C 95 % 1032,3 hPa 0,0 l/m 0 min 0 min 0,0 UV-I 0 W/m 0,0 km/h (0 Bft)
15.05.2014 03:32 4,2 C 2,8 C 95 % 1032,3 hPa 0,0 l/m 0 min 0 min 0,0 UV-I 0 W/m 0,0 km/h (0 Bft)
15.05.2014 03:34 4,2 C 2,8 C 100 % 1032,2 hPa 0,0 l/m 0 min 0 min 0,0 UV-I 0 W/m 0,0 km/h (0 Bft)
15.05.2014 03:36 4,2 C 2,8 C 94 % 1032,3 hPa 0,0 l/m 0 min 0 min 0,0 UV-I 0 W/m 0,0 km/h (0 Bft)
15.05.2014 03:38 4,2 C 2,8 C 94 % 1032,3 hPa 0,0 l/m 0 min 0 min 0,0 UV-I 0 W/m 0,0 km/h (0 Bft)
15.05.2014 03:40 4,1 C 2,8 C 95 % 1032,3 hPa 0,0 l/m 0 min 0 min 0,0 UV-I 0 W/m 0,0 km/h (0 Bft)
15.05.2014 03:42 4,1 C 2,8 C 95 % 1032,3 hPa 0,0 l/m 0 min 0 min 0,0 UV-I 0 W/m 0,0 km/h (0 Bft)
15.05.2014 03:44 4,1 C 2,8 C 95 % 1032,4 hPa 0,0 l/m 0 min 0 min 0,0 UV-I 0 W/m 0,0 km/h (0 Bft)
15.05.2014 03:46 4,1 C 2,8 C 95 % 1032,4 hPa 0,0 l/m 0 min 0 min 0,0 UV-I 0 W/m 0,0 km/h (0 Bft)
15.05.2014 03:48 4,1 C 2,8 C 95 % 1032,4 hPa 0,0 l/m 0 min 0 min 0,0 UV-I 0 W/m 0,0 km/h (0 Bft)
15.05.2014 03:50 4,0 C 2,8 C 95 % 1032,3 hPa 0,0 l/m 0 min 0 min 0,0 UV-I 0 W/m 0,0 km/h (0 Bft)
15.05.2014 03:52 4,0 C 2,2 C 95 % 1032,4 hPa 0,0 l/m 0 min 0 min 0,0 UV-I 0 W/m 0,0 km/h (0 Bft)
15.05.2014 03:54 3,9 C 2,2 C 95 % 1032,4 hPa 0,0 l/m 0 min 0 min 0,0 UV-I 0 W/m 0,0 km/h (0 Bft)
15.05.2014 03:56 3,9 C 2,2 C 95 % 1032,4 hPa 0,0 l/m 0 min 0 min 0,0 UV-I 0 W/m 0,0 km/h (0 Bft)
15.05.2014 03:58 3,9 C 2,2 C 95 % 1032,4 hPa 0,0 l/m 0 min 0 min 0,0 UV-I 0 W/m 0,0 km/h (0 Bft)
15.05.2014 04:00 3,8 C 2,2 C 95 % 1032,4 hPa 0,0 l/m 0 min 0 min 0,0 UV-I 0 W/m 0,0 km/h (0 Bft)
15.05.2014 04:05 3,8 C 2,2 C 95 % 1032,4 hPa 0,0 l/m 0 min 0 min 0,0 UV-I 0 W/m 0,0 km/h (0 Bft)
15.05.2014 04:06 3,8 C 2,2 C 95 % 1032,4 hPa 0,0 l/m 0 min 0 min 0,0 UV-I 0 W/m 0,0 km/h (0 Bft)
15.05.2014 04:08 3,8 C 2,2 C 95 % 1032,5 hPa 0,0 l/m 0 min 0 min 0,0 UV-I 0 W/m 0,0 km/h (0 Bft)
15.05.2014 04:10 3,8 C 2,2 C 95 % 1032,5 hPa 0,0 l/m 0 min 0 min 0,0 UV-I 0 W/m 0,0 km/h (0 Bft)
15.05.2014 04:12 3,7 C 2,2 C 95 % 1032,5 hPa 0,0 l/m 0 min 0 min 0,0 UV-I 0 W/m 0,0 km/h (0 Bft)
15.05.2014 04:14 3,7 C 2,2 C 95 % 1032,5 hPa 0,0 l/m 0 min 0 min 0,0 UV-I 0 W/m 0,0 km/h (0 Bft)
15.05.2014 04:16 3,7 C 2,2 C 95 % 1032,6 hPa 0,0 l/m 0 min 0 min 0,0 UV-I 0 W/m 0,0 km/h (0 Bft)
15.05.2014 04:18 3,7 C 2,2 C 95 % 1032,6 hPa 0,0 l/m 0 min 0 min 0,0 UV-I 0 W/m 0,0 km/h (0 Bft)
15.05.2014 04:20 3,8 C 2,2 C 95 % 1032,6 hPa 0,0 l/m 0 min 0 min 0,0 UV-I 0 W/m 0,0 km/h (0 Bft)
15.05.2014 04:22 3,8 C 2,2 C 95 % 1032,5 hPa 0,0 l/m 0 min 0 min 0,0 UV-I 0 W/m 0,0 km/h (0 Bft)
15.05.2014 04:24 3,8 C 2,2 C 96 % 1032,5 hPa 0,0 l/m 0 min 0 min 0,0 UV-I 0 W/m 0,0 km/h (0 Bft)
15.05.2014 04:26 3,7 C 2,2 C 95 % 1032,5 hPa 0,0 l/m 0 min 0 min 0,0 UV-I 0 W/m 0,0 km/h (0 Bft)
15.05.2014 04:28 3,7 C 2,2 C 95 % 1032,5 hPa 0,0 l/m 0 min 0 min 0,0 UV-I 0 W/m 0,0 km/h (0 Bft)
15.05.2014 04:30 3,7 C 2,2 C 95 % 1032,6 hPa 0,0 l/m 0 min 0 min 0,0 UV-I 0 W/m 0,0 km/h (0 Bft)
15.05.2014 04:32 3,7 C 2,2 C 95 % 1032,6 hPa 0,0 l/m 0 min 0 min 0,0 UV-I 0 W/m 0,0 km/h (0 Bft)
15.05.2014 04:34 3,7 C 2,2 C 96 % 1032,5 hPa 0,0 l/m 0 min 0 min 0,0 UV-I 0 W/m 0,0 km/h (0 Bft)
15.05.2014 04:36 3,7 C 2,2 C 96 % 1032,5 hPa 0,0 l/m 0 min 0 min 0,0 UV-I 0 W/m 0,0 km/h (0 Bft)
15.05.2014 04:38 3,7 C 2,2 C 96 % 1032,6 hPa 0,0 l/m 0 min 0 min 0,0 UV-I 0 W/m 0,0 km/h (0 Bft)
15.05.2014 04:40 3,7 C 2,2 C 96 % 1032,7 hPa 0,0 l/m 0 min 0 min 0,0 UV-I 0 W/m 0,0 km/h (0 Bft)
15.05.2014 04:42 3,7 C 2,2 C 96 % 1032,7 hPa 0,0 l/m 0 min 0 min 0,0 UV-I 0 W/m 0,0 km/h (0 Bft)
15.05.2014 04:44 3,7 C 2,2 C 96 % 1032,7 hPa 0,0 l/m 0 min 0 min 0,0 UV-I 0 W/m 0,0 km/h (0 Bft)
15.05.2014 04:46 3,7 C 2,2 C 96 % 1032,6 hPa 0,0 l/m 0 min 0 min 0,0 UV-I 0 W/m 0,0 km/h (0 Bft)
15.05.2014 04:48 3,7 C 2,2 C 96 % 1032,7 hPa 0,0 l/m 0 min 0 min 0,0 UV-I 0 W/m 0,0 km/h (0 Bft)
15.05.2014 04:50 3,7 C 2,2 C 96 % 1032,7 hPa 0,0 l/m 0 min 0 min 0,0 UV-I 0 W/m 0,0 km/h (0 Bft)
15.05.2014 04:52 3,7 C 2,2 C 96 % 1032,8 hPa 0,0 l/m 0 min 0 min 0,0 UV-I 0 W/m 0,0 km/h (0 Bft)
15.05.2014 04:54 3,7 C 2,2 C 96 % 1032,7 hPa 0,0 l/m 0 min 0 min 0,0 UV-I 0 W/m 0,0 km/h (0 Bft)
15.05.2014 04:56 3,7 C 2,2 C 96 % 1032,9 hPa 0,0 l/m 0 min 0 min 0,0 UV-I 0 W/m 0,0 km/h (0 Bft)
15.05.2014 04:58 3,7 C 2,2 C 96 % 1032,8 hPa 0,0 l/m 0 min 0 min 0,0 UV-I 0 W/m 0,0 km/h (0 Bft)
15.05.2014 05:00 3,6 C 2,2 C 96 % 1032,8 hPa 0,0 l/m 0 min 0 min 0,0 UV-I 0 W/m 0,0 km/h (0 Bft)
15.05.2014 05:02 3,6 C 2,2 C 96 % 1032,8 hPa 0,0 l/m 0 min 0 min 0,0 UV-I 0 W/m 0,0 km/h (0 Bft)
15.05.2014 05:06 3,6 C 2,2 C 96 % 1032,8 hPa 0,0 l/m 0 min 0 min 0,0 UV-I 0 W/m 0,0 km/h (0 Bft)
15.05.2014 05:08 3,6 C 2,2 C 96 % 1032,8 hPa 0,0 l/m 0 min 0 min 0,0 UV-I 0 W/m 0,0 km/h (0 Bft)
15.05.2014 05:10 3,6 C 2,2 C 96 % 1032,9 hPa 0,0 l/m 0 min 0 min 0,0 UV-I 0 W/m 0,0 km/h (0 Bft)
15.05.2014 05:12 3,6 C 2,2 C 96 % 1032,9 hPa 0,0 l/m 0 min 0 min 0,0 UV-I 0 W/m 0,0 km/h (0 Bft)
15.05.2014 05:14 3,6 C 2,2 C 96 % 1032,9 hPa 0,0 l/m 0 min 0 min 0,0 UV-I 0 W/m 0,0 km/h (0 Bft)
15.05.2014 05:16 3,6 C 2,2 C 96 % 1033,0 hPa 0,0 l/m 0 min 0 min 0,0 UV-I 0 W/m 0,0 km/h (0 Bft)
15.05.2014 05:18 3,5 C 2,2 C 96 % 1032,9 hPa 0,0 l/m 0 min 0 min 0,0 UV-I 0 W/m 0,0 km/h (0 Bft)
15.05.2014 05:20 3,5 C 2,2 C 96 % 1032,9 hPa 0,0 l/m 0 min 0 min 0,0 UV-I 0 W/m 0,0 km/h (0 Bft)
15.05.2014 05:22 3,5 C 2,2 C 96 % 1032,8 hPa 0,0 l/m 0 min 0 min 0,0 UV-I 0 W/m 0,0 km/h (0 Bft)
15.05.2014 05:24 3,5 C 2,2 C 96 % 1033,0 hPa 0,0 l/m 0 min 0 min 0,0 UV-I 0 W/m 0,0 km/h (0 Bft)
15.05.2014 05:26 3,5 C 1,7 C 96 % 1032,9 hPa 0,0 l/m 0 min 0 min 0,0 UV-I 0 W/m 0,0 km/h (0 Bft)
15.05.2014 05:28 3,4 C 1,7 C 96 % 1032,9 hPa 0,0 l/m 0 min 0 min 0,0 UV-I 0 W/m 0,0 km/h (0 Bft)
15.05.2014 05:30 3,4 C 1,7 C 96 % 1033,0 hPa 0,0 l/m 0 min 0 min 0,0 UV-I 0 W/m 0,0 km/h (0 Bft)
15.05.2014 05:32 3,4 C 2,2 C 96 % 1033,0 hPa 0,0 l/m 0 min 0 min 0,0 UV-I 0 W/m 0,0 km/h (0 Bft)
15.05.2014 05:34 3,4 C 1,7 C 96 % 1033,0 hPa 0,0 l/m 0 min 0 min 0,0 UV-I 0 W/m 0,0 km/h (0 Bft)
15.05.2014 05:36 3,4 C 2,2 C 96 % 1033,0 hPa 0,0 l/m 0 min 0 min 0,0 UV-I 0 W/m 0,0 km/h (0 Bft)
15.05.2014 05:38 3,4 C 1,7 C 96 % 1033,0 hPa 0,0 l/m 0 min 0 min 0,0 UV-I 0 W/m 0,0 km/h (0 Bft)
15.05.2014 05:40 3,4 C 1,7 C 96 % 1033,0 hPa 0,0 l/m 0 min 0 min 0,0 UV-I 0 W/m 0,0 km/h (0 Bft)
15.05.2014 05:42 3,4 C 1,7 C 96 % 1033,0 hPa 0,0 l/m 0 min 0 min 0,0 UV-I 5 W/m 0,0 km/h (0 Bft)
15.05.2014 05:44 3,4 C 1,7 C 96 % 1033,0 hPa 0,0 l/m 0 min 0 min 0,0 UV-I 5 W/m 0,0 km/h (0 Bft)
15.05.2014 05:46 3,4 C 1,7 C 96 % 1033,0 hPa 0,0 l/m 0 min 0 min 0,0 UV-I 5 W/m 0,0 km/h (0 Bft)
15.05.2014 05:48 3,3 C 1,7 C 96 % 1033,0 hPa 0,0 l/m 0 min 0 min 0,0 UV-I 5 W/m 0,0 km/h (0 Bft)
15.05.2014 05:50 3,3 C 1,7 C 96 % 1033,0 hPa 0,0 l/m 0 min 0 min 0,0 UV-I 7 W/m 0,0 km/h (0 Bft)
15.05.2014 05:52 3,3 C 1,7 C 96 % 1033,1 hPa 0,0 l/m 0 min 0 min 0,0 UV-I 7 W/m 0,0 km/h (0 Bft)
15.05.2014 05:54 3,3 C 1,7 C 96 % 1033,1 hPa 0,0 l/m 0 min 0 min 0,0 UV-I 7 W/m 0,0 km/h (0 Bft)
15.05.2014 05:56 3,3 C 1,7 C 96 % 1033,1 hPa 0,0 l/m 0 min 0 min 0,0 UV-I 9 W/m 0,0 km/h (0 Bft)
15.05.2014 05:58 3,3 C 1,7 C 96 % 1033,1 hPa 0,0 l/m 0 min 0 min 0,0 UV-I 9 W/m 0,0 km/h (0 Bft)
15.05.2014 06:00 3,4 C 2,2 C 96 % 1033,1 hPa 0,0 l/m 0 min 0 min 0,0 UV-I 11 W/m 0,0 km/h (0 Bft)
15.05.2014 06:02 3,4 C 2,2 C 96 % 1033,0 hPa 0,0 l/m 0 min 0 min 0,0 UV-I 11 W/m 0,0 km/h (0 Bft)
15.05.2014 06:06 3,4 C 2,2 C 96 % 1033,1 hPa 0,0 l/m 0 min 0 min 0,0 UV-I 14 W/m 0,0 km/h (0 Bft)
15.05.2014 06:08 3,5 C 2,2 C 96 % 1033,1 hPa 0,0 l/m 0 min 0 min 0,0 UV-I 14 W/m 0,0 km/h (0 Bft)
15.05.2014 06:10 3,6 C 2,8 C 96 % 1033,1 hPa 0,0 l/m 0 min 0 min 0,0 UV-I 16 W/m 0,0 km/h (0 Bft)
15.05.2014 06:12 3,7 C 2,8 C 96 % 1033,2 hPa 0,0 l/m 0 min 0 min 0,0 UV-I 16 W/m 0,0 km/h (0 Bft)
15.05.2014 06:14 3,7 C 2,8 C 96 % 1033,2 hPa 0,0 l/m 0 min 0 min 0,0 UV-I 18 W/m 0,0 km/h (0 Bft)
15.05.2014 06:16 3,7 C 2,8 C 96 % 1033,2 hPa 0,0 l/m 0 min 0 min 0,0 UV-I 18 W/m 0,0 km/h (0 Bft)
15.05.2014 06:18 3,8 C 2,8 C 96 % 1033,2 hPa 0,0 l/m 0 min 0 min 0,0 UV-I 18 W/m 0,0 km/h (0 Bft)
15.05.2014 06:20 3,9 C 2,8 C 96 % 1033,3 hPa 0,0 l/m 0 min 0 min 0,0 UV-I 19 W/m 0,0 km/h (0 Bft)
15.05.2014 06:22 3,9 C 2,8 C 96 % 1033,3 hPa 0,0 l/m 0 min 0 min 0,0 UV-I 21 W/m 0,0 km/h (0 Bft)
15.05.2014 06:24 4,0 C 3,3 C 96 % 1033,3 hPa 0,0 l/m 0 min 0 min 0,0 UV-I 23 W/m 0,0 km/h (0 Bft)
15.05.2014 06:26 4,1 C 3,3 C 96 % 1033,3 hPa 0,0 l/m 0 min 0 min 0,0 UV-I 23 W/m 0,0 km/h (0 Bft)
15.05.2014 06:28 4,1 C 3,3 C 97 % 1033,3 hPa 0,0 l/m 0 min 0 min 0,0 UV-I 23 W/m 0,0 km/h (0 Bft)
15.05.2014 06:30 4,2 C 3,3 C 97 % 1033,3 hPa 0,0 l/m 0 min 0 min 0,0 UV-I 23 W/m 0,0 km/h (0 Bft)
15.05.2014 06:32 4,2 C 3,3 C 97 % 1033,3 hPa 0,0 l/m 0 min 0 min 0,0 UV-I 26 W/m 0,0 km/h (0 Bft)
15.05.2014 06:34 4,3 C 3,9 C 97 % 1033,3 hPa 0,0 l/m 0 min 0 min 0,0 UV-I 28 W/m 0,0 km/h (0 Bft)
15.05.2014 06:36 4,3 C 3,9 C 97 % 1033,3 hPa 0,0 l/m 0 min 0 min 0,0 UV-I 28 W/m 0,0 km/h (0 Bft)
15.05.2014 06:38 4,4 C 3,9 C 97 % 1033,4 hPa 0,0 l/m 0 min 0 min 0,0 UV-I 30 W/m 0,0 km/h (0 Bft)
15.05.2014 06:40 4,4 C 3,9 C 97 % 1033,3 hPa 0,0 l/m 0 min 0 min 0,0 UV-I 33 W/m 0,0 km/h (0 Bft)
15.05.2014 06:42 4,5 C 3,9 C 97 % 1033,4 hPa 0,0 l/m 0 min 0 min 0,0 UV-I 37 W/m 0,0 km/h (0 Bft)
15.05.2014 06:44 4,5 C 3,9 C 97 % 1033,4 hPa 0,0 l/m 0 min 0 min 0,0 UV-I 40 W/m 0,0 km/h (0 Bft)
15.05.2014 06:46 4,6 C 3,9 C 97 % 1033,4 hPa 0,0 l/m 0 min 0 min 0,0 UV-I 42 W/m 0,0 km/h (0 Bft)
15.05.2014 06:48 4,7 C 4,4 C 97 % 1033,4 hPa 0,0 l/m 0 min 0 min 0,0 UV-I 44 W/m 0,0 km/h (0 Bft)
15.05.2014 06:50 4,7 C 4,4 C 97 % 1033,4 hPa 0,0 l/m 0 min 0 min 0,0 UV-I 49 W/m 0,0 km/h (0 Bft)
15.05.2014 06:52 4,8 C 4,4 C 97 % 1033,4 hPa 0,0 l/m 0 min 0 min 0,0 UV-I 53 W/m 0,0 km/h (0 Bft)
15.05.2014 06:54 4,9 C 4,4 C 97 % 1033,5 hPa 0,0 l/m 0 min 0 min 0,0 UV-I 56 W/m 0,0 km/h (0 Bft)
15.05.2014 06:56 4,9 C 4,4 C 97 % 1033,5 hPa 0,0 l/m 0 min 0 min 0,0 UV-I 60 W/m 0,0 km/h (0 Bft)
15.05.2014 06:58 5,0 C 5,0 C 97 % 1033,5 hPa 0,0 l/m 0 min 0 min 0,0 UV-I 62 W/m 0,0 km/h (0 Bft)
15.05.2014 07:00 5,1 C 5,0 C 97 % 1033,5 hPa 0,0 l/m 0 min 0 min 0,0 UV-I 60 W/m 0,0 km/h (0 Bft)
15.05.2014 07:02 5,2 C 5,0 C 97 % 1033,5 hPa 0,0 l/m 0 min 0 min 0,0 UV-I 60 W/m 0,0 km/h (0 Bft)
15.05.2014 07:06 5,3 C 5,0 C 97 % 1033,6 hPa 0,0 l/m 0 min 0 min 0,0 UV-I 60 W/m 0,0 km/h (0 Bft)
15.05.2014 07:08 5,3 C 5,0 C 97 % 1033,7 hPa 0,0 l/m 0 min 0 min 0,0 UV-I 60 W/m 0,0 km/h (0 Bft)
15.05.2014 07:10 5,3 C 5,0 C 97 % 1033,7 hPa 0,0 l/m 0 min 0 min 0,0 UV-I 62 W/m 0,0 km/h (0 Bft)
15.05.2014 07:12 5,4 C 5,0 C 97 % 1033,7 hPa 0,0 l/m 0 min 0 min 0,0 UV-I 62 W/m 0,0 km/h (0 Bft)
15.05.2014 07:14 5,4 C 5,0 C 97 % 1033,8 hPa 0,0 l/m 0 min 0 min 0,0 UV-I 62 W/m 0,0 km/h (0 Bft)
15.05.2014 07:16 5,5 C 5,0 C 97 % 1033,8 hPa 0,0 l/m 0 min 0 min 0,0 UV-I 60 W/m 0,0 km/h (0 Bft)
15.05.2014 07:18 5,6 C 5,6 C 97 % 1033,8 hPa 0,0 l/m 0 min 0 min 0,0 UV-I 58 W/m 0,0 km/h (0 Bft)
15.05.2014 07:20 5,6 C 5,6 C 97 % 1033,9 hPa 0,0 l/m 0 min 0 min 0,0 UV-I 62 W/m 0,0 km/h (0 Bft)
15.05.2014 07:22 5,7 C 5,6 C 97 % 1033,9 hPa 0,0 l/m 0 min 0 min 0,0 UV-I 60 W/m 0,0 km/h (0 Bft)
15.05.2014 07:24 5,7 C 5,6 C 97 % 1033,9 hPa 0,0 l/m 0 min 0 min 0,0 UV-I 58 W/m 0,0 km/h (0 Bft)
15.05.2014 07:26 5,8 C 5,6 C 97 % 1033,9 hPa 0,0 l/m 0 min 0 min 0,0 UV-I 60 W/m 0,0 km/h (0 Bft)
15.05.2014 07:28 5,8 C 5,6 C 97 % 1033,9 hPa 0,0 l/m 0 min 0 min 0,0 UV-I 63 W/m 0,0 km/h (0 Bft)
15.05.2014 07:30 5,9 C 5,6 C 97 % 1033,9 hPa 0,0 l/m 0 min 0 min 0,0 UV-I 70 W/m 0,0 km/h (0 Bft)
15.05.2014 07:32 5,9 C 5,6 C 97 % 1033,9 hPa 0,0 l/m 0 min 0 min 0,0 UV-I 76 W/m 0,0 km/h (0 Bft)
15.05.2014 07:34 5,9 C 5,6 C 96 % 1033,9 hPa 0,0 l/m 0 min 0 min 0,0 UV-I 81 W/m 0,0 km/h (0 Bft)
15.05.2014 07:36 5,9 C 5,6 C 96 % 1033,9 hPa 0,0 l/m 0 min 0 min 0,0 UV-I 91 W/m 2,6 km/h (1 Bft)
15.05.2014 07:38 6,0 C 5,6 C 96 % 1033,9 hPa 0,0 l/m 0 min 0 min 0,0 UV-I 95 W/m 0,0 km/h (0 Bft)
15.05.2014 07:40 6,1 C 6,1 C 96 % 1033,9 hPa 0,0 l/m 0 min 0 min 0,0 UV-I 98 W/m 0,0 km/h (0 Bft)
15.05.2014 07:42 6,2 C 6,1 C 96 % 1034,0 hPa 0,0 l/m 0 min 0 min 0,0 UV-I 109 W/m 0,0 km/h (0 Bft)
15.05.2014 07:44 6,3 C 6,1 C 96 % 1034,0 hPa 0,0 l/m 0 min 0 min 0,0 UV-I 114 W/m 2,6 km/h (1 Bft)
15.05.2014 07:46 6,4 C 6,1 C 95 % 1034,0 hPa 0,0 l/m 0 min 0 min 0,0 UV-I 127 W/m 0,0 km/h (0 Bft)
15.05.2014 07:48 6,4 C 6,1 C 95 % 1034,0 hPa 0,0 l/m 0 min 0 min 0,0 UV-I 142 W/m 7,7 km/h (2 Bft)
15.05.2014 07:50 6,5 C 6,1 C 94 % 1034,0 hPa 0,0 l/m 0 min 0 min 0,0 UV-I 149 W/m 7,7 km/h (2 Bft)
15.05.2014 07:52 6,7 C 6,7 C 94 % 1034,0 hPa 0,0 l/m 0 min 0 min 0,0 UV-I 155 W/m 7,7 km/h (2 Bft)
15.05.2014 07:54 6,7 C 6,7 C 93 % 1034,1 hPa 0,0 l/m 0 min 0 min 0,0 UV-I 151 W/m 7,7 km/h (2 Bft)
15.05.2014 07:56 6,8 C 6,7 C 93 % 1034,0 hPa 0,0 l/m 0 min 0 min 0,0 UV-I 155 W/m 0,0 km/h (0 Bft)
15.05.2014 07:58 6,9 C 6,7 C 92 % 1034,1 hPa 0,0 l/m 0 min 0 min 0,0 UV-I 149 W/m 5,1 km/h (1 Bft)
15.05.2014 08:00 6,9 C 6,7 C 91 % 1034,0 hPa 0,0 l/m 0 min 0 min 0,0 UV-I 146 W/m 7,7 km/h (2 Bft)
15.05.2014 08:02 7,0 C 6,7 C 91 % 1034,1 hPa 0,0 l/m 0 min 0 min 0,0 UV-I 135 W/m 0,0 km/h (0 Bft)
15.05.2014 08:06 7,1 C 6,7 C 90 % 1034,1 hPa 0,0 l/m 0 min 0 min 0,0 UV-I 121 W/m 10,3 km/h (2 Bft)
15.05.2014 08:08 7,2 C 6,7 C 90 % 1034,1 hPa 0,0 l/m 0 min 0 min 0,0 UV-I 120 W/m 7,7 km/h (2 Bft)
15.05.2014 08:10 7,2 C 7,2 C 89 % 1034,0 hPa 0,0 l/m 0 min 0 min 0,0 UV-I 116 W/m 0,0 km/h (0 Bft)
15.05.2014 08:12 7,2 C 6,7 C 89 % 1034,1 hPa 0,0 l/m 0 min 0 min 0,0 UV-I 109 W/m 7,7 km/h (2 Bft)
15.05.2014 08:14 7,3 C 6,7 C 89 % 1034,1 hPa 0,0 l/m 0 min 0 min 0,0 UV-I 105 W/m 7,7 km/h (2 Bft)
15.05.2014 08:16 7,3 C 6,7 C 89 % 1034,1 hPa 0,0 l/m 0 min 0 min 0,0 UV-I 104 W/m 10,3 km/h (2 Bft)
15.05.2014 08:18 7,3 C 6,7 C 89 % 1034,2 hPa 0,0 l/m 0 min 0 min 0,0 UV-I 107 W/m 0,0 km/h (0 Bft)
15.05.2014 08:20 7,3 C 7,2 C 89 % 1034,2 hPa 0,0 l/m 0 min 0 min 0,0 UV-I 109 W/m 7,7 km/h (2 Bft)
15.05.2014 08:22 7,3 C 7,2 C 88 % 1034,2 hPa 0,0 l/m 0 min 0 min 0,0 UV-I 111 W/m 7,7 km/h (2 Bft)
15.05.2014 08:24 7,3 C 7,2 C 88 % 1034,2 hPa 0,0 l/m 0 min 0 min 0,0 UV-I 118 W/m 7,7 km/h (2 Bft)
15.05.2014 08:26 7,3 C 7,2 C 88 % 1034,2 hPa 0,0 l/m 0 min 0 min 0,0 UV-I 123 W/m 10,3 km/h (2 Bft)
15.05.2014 08:28 7,3 C 7,2 C 88 % 1034,2 hPa 0,0 l/m 0 min 0 min 0,0 UV-I 128 W/m 5,1 km/h (1 Bft)
15.05.2014 08:30 7,4 C 7,2 C 88 % 1034,2 hPa 0,0 l/m 0 min 0 min 0,0 UV-I 132 W/m 0,0 km/h (0 Bft)
15.05.2014 08:32 7,4 C 7,2 C 88 % 1034,2 hPa 0,0 l/m 0 min 0 min 0,0 UV-I 130 W/m 0,0 km/h (0 Bft)
15.05.2014 08:34 7,5 C 7,2 C 88 % 1034,2 hPa 0,0 l/m 0 min 0 min 0,0 UV-I 127 W/m 0,0 km/h (0 Bft)
15.05.2014 08:36 7,5 C 7,2 C 88 % 1034,2 hPa 0,0 l/m 0 min 0 min 0,0 UV-I 127 W/m 5,1 km/h (1 Bft)
15.05.2014 08:38 7,6 C 7,2 C 87 % 1034,2 hPa 0,0 l/m 0 min 0 min 0,0 UV-I 121 W/m 0,0 km/h (0 Bft)
15.05.2014 08:40 7,6 C 7,2 C 87 % 1034,3 hPa 0,0 l/m 0 min 0 min 0,0 UV-I 118 W/m 5,1 km/h (1 Bft)
15.05.2014 08:42 7,6 C 7,2 C 87 % 1034,3 hPa 0,0 l/m 0 min 0 min 0,0 UV-I 120 W/m 0,0 km/h (0 Bft)
15.05.2014 08:44 7,6 C 7,2 C 87 % 1034,3 hPa 0,0 l/m 0 min 0 min 0,0 UV-I 121 W/m 7,7 km/h (2 Bft)
15.05.2014 08:46 7,6 C 7,2 C 87 % 1034,3 hPa 0,0 l/m 0 min 0 min 0,0 UV-I 118 W/m 0,0 km/h (0 Bft)
15.05.2014 08:48 7,7 C 7,2 C 87 % 1034,3 hPa 0,0 l/m 0 min 0 min 0,0 UV-I 113 W/m 2,6 km/h (1 Bft)
15.05.2014 08:50 7,7 C 7,2 C 87 % 1034,4 hPa 0,0 l/m 0 min 0 min 0,0 UV-I 107 W/m 0,0 km/h (0 Bft)
15.05.2014 08:52 7,8 C 7,2 C 87 % 1034,4 hPa 0,0 l/m 0 min 0 min 0,0 UV-I 105 W/m 0,0 km/h (0 Bft)
15.05.2014 08:54 7,8 C 7,8 C 87 % 1034,5 hPa 0,0 l/m 0 min 0 min 0,0 UV-I 104 W/m 0,0 km/h (0 Bft)
15.05.2014 08:56 7,8 C 7,8 C 86 % 1034,4 hPa 0,0 l/m 0 min 0 min 0,0 UV-I 102 W/m 0,0 km/h (0 Bft)
15.05.2014 08:58 7,8 C 7,8 C 86 % 1034,5 hPa 0,0 l/m 0 min 0 min 0,0 UV-I 102 W/m 0,0 km/h (0 Bft)
15.05.2014 09:00 7,8 C 7,8 C 86 % 1034,5 hPa 0,0 l/m 0 min 0 min 0,0 UV-I 104 W/m 2,6 km/h (1 Bft)
15.05.2014 09:02 7,8 C 7,2 C 86 % 1034,5 hPa 0,0 l/m 0 min 0 min 0,0 UV-I 105 W/m 0,0 km/h (0 Bft)
15.05.2014 09:06 7,8 C 7,2 C 86 % 1034,5 hPa 0,0 l/m 0 min 0 min 0,0 UV-I 104 W/m 12,9 km/h (3 Bft)
15.05.2014 09:08 7,8 C 7,2 C 85 % 1034,5 hPa 0,0 l/m 0 min 0 min 0,0 UV-I 107 W/m 2,6 km/h (1 Bft)
15.05.2014 09:10 7,8 C 7,2 C 85 % 1034,6 hPa 0,0 l/m 0 min 0 min 0,0 UV-I 109 W/m 2,6 km/h (1 Bft)
15.05.2014 09:12 7,9 C 7,8 C 85 % 1034,6 hPa 0,0 l/m 0 min 0 min 0,0 UV-I 109 W/m 0,0 km/h (0 Bft)
15.05.2014 09:14 7,9 C 7,8 C 85 % 1034,6 hPa 0,0 l/m 0 min 0 min 0,0 UV-I 109 W/m 7,7 km/h (2 Bft)
15.05.2014 09:16 7,9 C 7,8 C 85 % 1034,6 hPa 0,0 l/m 0 min 0 min 0,0 UV-I 111 W/m 0,0 km/h (0 Bft)
15.05.2014 09:18 8,0 C 7,8 C 85 % 1034,7 hPa 0,0 l/m 0 min 0 min 0,0 UV-I 114 W/m 2,6 km/h (1 Bft)
15.05.2014 09:20 8,1 C 7,8 C 85 % 1034,6 hPa 0,0 l/m 0 min 0 min 0,0 UV-I 116 W/m 0,0 km/h (0 Bft)
15.05.2014 09:22 8,1 C 7,8 C 85 % 1034,7 hPa 0,0 l/m 0 min 0 min 0,0 UV-I 114 W/m 0,0 km/h (0 Bft)
15.05.2014 09:24 8,1 C 7,8 C 85 % 1034,6 hPa 0,0 l/m 0 min 0 min 0,0 UV-I 116 W/m 12,9 km/h (3 Bft)
15.05.2014 09:26 8,1 C 7,8 C 84 % 1034,6 hPa 0,0 l/m 0 min 0 min 0,0 UV-I 118 W/m 2,6 km/h (1 Bft)
15.05.2014 09:28 8,1 C 7,8 C 84 % 1034,6 hPa 0,0 l/m 0 min 0 min 0,0 UV-I 120 W/m 7,7 km/h (2 Bft)
15.05.2014 09:30 8,2 C 7,8 C 84 % 1034,6 hPa 0,0 l/m 0 min 0 min 0,0 UV-I 120 W/m 10,3 km/h (2 Bft)
15.05.2014 09:32 8,2 C 7,8 C 84 % 1034,6 hPa 0,0 l/m 0 min 0 min 0,0 UV-I 121 W/m 2,6 km/h (1 Bft)
15.05.2014 09:34 8,3 C 7,8 C 84 % 1034,6 hPa 0,0 l/m 0 min 0 min 0,0 UV-I 121 W/m 0,0 km/h (0 Bft)
15.05.2014 09:36 8,3 C 8,3 C 84 % 1034,6 hPa 0,0 l/m 0 min 0 min 0,0 UV-I 125 W/m 5,1 km/h (1 Bft)
15.05.2014 09:38 8,4 C 8,3 C 84 % 1034,6 hPa 0,0 l/m 0 min 0 min 0,0 UV-I 128 W/m 7,7 km/h (2 Bft)
15.05.2014 09:40 8,4 C 8,3 C 83 % 1034,6 hPa 0,0 l/m 0 min 0 min 0,0 UV-I 127 W/m 7,7 km/h (2 Bft)
15.05.2014 09:42 8,4 C 8,3 C 83 % 1034,7 hPa 0,0 l/m 0 min 0 min 0,0 UV-I 125 W/m 7,7 km/h (2 Bft)
15.05.2014 09:44 8,4 C 8,3 C 83 % 1034,6 hPa 0,0 l/m 0 min 0 min 0,0 UV-I 125 W/m 10,3 km/h (2 Bft)
15.05.2014 09:46 8,4 C 8,3 C 83 % 1034,7 hPa 0,0 l/m 0 min 0 min 0,0 UV-I 123 W/m 7,7 km/h (2 Bft)
15.05.2014 09:48 8,5 C 8,3 C 83 % 1034,8 hPa 0,0 l/m 0 min 0 min 0,0 UV-I 120 W/m 2,6 km/h (1 Bft)
15.05.2014 09:50 8,5 C 8,3 C 82 % 1034,8 hPa 0,0 l/m 0 min 0 min 0,0 UV-I 121 W/m 10,3 km/h (2 Bft)
15.05.2014 09:52 8,5 C 8,3 C 82 % 1034,8 hPa 0,0 l/m 0 min 0 min 0,0 UV-I 121 W/m 12,9 km/h (3 Bft)
15.05.2014 09:54 8,5 C 8,3 C 82 % 1034,9 hPa 0,0 l/m 0 min 0 min 0,0 UV-I 120 W/m 12,9 km/h (3 Bft)
15.05.2014 09:56 8,5 C 8,3 C 82 % 1034,9 hPa 0,0 l/m 0 min 0 min 0,0 UV-I 118 W/m 7,7 km/h (2 Bft)
15.05.2014 09:58 8,5 C 7,8 C 82 % 1034,9 hPa 0,0 l/m 0 min 0 min 0,0 UV-I 116 W/m 7,7 km/h (2 Bft)
15.05.2014 10:00 8,6 C 8,3 C 82 % 1035,0 hPa 0,0 l/m 0 min 0 min 0,0 UV-I 116 W/m 2,6 km/h (1 Bft)
15.05.2014 10:02 8,6 C 8,3 C 82 % 1034,9 hPa 0,0 l/m 0 min 0 min 0,0 UV-I 120 W/m 12,9 km/h (3 Bft)
15.05.2014 10:06 8,7 C 8,3 C 81 % 1034,9 hPa 0,0 l/m 0 min 0 min 0,0 UV-I 130 W/m 2,6 km/h (1 Bft)
15.05.2014 10:08 8,7 C 8,3 C 81 % 1034,9 hPa 0,0 l/m 0 min 0 min 0,0 UV-I 134 W/m 0,0 km/h (0 Bft)
15.05.2014 10:10 8,7 C 8,3 C 81 % 1034,9 hPa 0,0 l/m 0 min 0 min 0,0 UV-I 135 W/m 7,7 km/h (2 Bft)
15.05.2014 10:12 8,7 C 8,3 C 80 % 1034,9 hPa 0,0 l/m 0 min 0 min 0,0 UV-I 137 W/m 7,7 km/h (2 Bft)
15.05.2014 10:14 8,7 C 8,3 C 80 % 1034,8 hPa 0,0 l/m 0 min 0 min 0,0 UV-I 142 W/m 0,0 km/h (0 Bft)
15.05.2014 10:16 8,8 C 8,3 C 80 % 1034,9 hPa 0,0 l/m 0 min 0 min 0,0 UV-I 149 W/m 0,0 km/h (0 Bft)
15.05.2014 10:18 8,8 C 8,3 C 79 % 1034,9 hPa 0,0 l/m 0 min 0 min 0,0 UV-I 155 W/m 5,1 km/h (1 Bft)
15.05.2014 10:20 8,9 C 8,3 C 80 % 1034,8 hPa 0,0 l/m 0 min 0 min 0,0 UV-I 160 W/m 5,1 km/h (1 Bft)
15.05.2014 10:22 8,9 C 8,9 C 79 % 1034,8 hPa 0,0 l/m 0 min 0 min 0,0 UV-I 156 W/m 5,1 km/h (1 Bft)
15.05.2014 10:24 9,0 C 8,9 C 79 % 1034,9 hPa 0,0 l/m 0 min 0 min 0,0 UV-I 148 W/m 10,3 km/h (2 Bft)
15.05.2014 10:26 9,0 C 8,9 C 78 % 1034,8 hPa 0,0 l/m 0 min 0 min 0,0 UV-I 144 W/m 15,4 km/h (3 Bft)
15.05.2014 10:28 9,0 C 8,9 C 78 % 1034,9 hPa 0,0 l/m 0 min 0 min 0,0 UV-I 141 W/m 7,7 km/h (2 Bft)
15.05.2014 10:30 9,1 C 8,9 C 78 % 1035,0 hPa 0,0 l/m 0 min 0 min 0,0 UV-I 139 W/m 7,7 km/h (2 Bft)
15.05.2014 10:32 9,1 C 8,9 C 78 % 1034,9 hPa 0,0 l/m 0 min 0 min 0,0 UV-I 137 W/m 7,7 km/h (2 Bft)
15.05.2014 10:34 9,1 C 8,9 C 77 % 1035,0 hPa 0,0 l/m 0 min 0 min 0,0 UV-I 135 W/m 2,6 km/h (1 Bft)
15.05.2014 10:36 9,1 C 8,9 C 78 % 1035,0 hPa 0,0 l/m 0 min 0 min 0,0 UV-I 137 W/m 7,7 km/h (2 Bft)
15.05.2014 10:38 9,1 C 8,9 C 77 % 1035,0 hPa 0,0 l/m 0 min 0 min 0,0 UV-I 139 W/m 12,9 km/h (3 Bft)
15.05.2014 10:40 9,1 C 8,9 C 77 % 1035,0 hPa 0,0 l/m 0 min 0 min 0,0 UV-I 139 W/m 12,9 km/h (3 Bft)
15.05.2014 10:42 9,1 C 8,3 C 76 % 1035,0 hPa 0,0 l/m 0 min 0 min 0,0 UV-I 137 W/m 10,3 km/h (2 Bft)
15.05.2014 10:44 9,1 C 8,9 C 77 % 1035,1 hPa 0,0 l/m 0 min 0 min 0,0 UV-I 141 W/m 15,4 km/h (3 Bft)
15.05.2014 10:46 9,1 C 8,9 C 76 % 1035,0 hPa 0,0 l/m 0 min 0 min 0,0 UV-I 142 W/m 12,9 km/h (3 Bft)
15.05.2014 10:48 9,1 C 8,9 C 76 % 1035,2 hPa 0,0 l/m 0 min 0 min 0,0 UV-I 142 W/m 12,9 km/h (3 Bft)
15.05.2014 10:50 9,1 C 8,9 C 76 % 1035,1 hPa 0,0 l/m 0 min 0 min 0,0 UV-I 146 W/m 10,3 km/h (2 Bft)
15.05.2014 10:52 9,2 C 8,9 C 75 % 1035,2 hPa 0,0 l/m 0 min 0 min 0,0 UV-I 151 W/m 7,7 km/h (2 Bft)
15.05.2014 10:54 9,1 C 8,9 C 75 % 1035,2 hPa 0,0 l/m 0 min 0 min 0,0 UV-I 153 W/m 12,9 km/h (3 Bft)
15.05.2014 10:56 9,2 C 8,9 C 75 % 1035,3 hPa 0,0 l/m 0 min 0 min 0,0 UV-I 153 W/m 0,0 km/h (0 Bft)
15.05.2014 10:58 9,2 C 8,9 C 75 % 1035,2 hPa 0,0 l/m 0 min 0 min 0,0 UV-I 155 W/m 12,9 km/h (3 Bft)
15.05.2014 11:00 9,2 C 8,9 C 75 % 1035,1 hPa 0,0 l/m 0 min 0 min 0,0 UV-I 162 W/m 15,4 km/h (3 Bft)
15.05.2014 11:02 9,3 C 8,9 C 75 % 1035,2 hPa 0,0 l/m 0 min 0 min 0,0 UV-I 162 W/m 15,4 km/h (3 Bft)
15.05.2014 11:06 9,3 C 8,9 C 74 % 1035,3 hPa 0,0 l/m 0 min 0 min 0,0 UV-I 156 W/m 12,9 km/h (3 Bft)
15.05.2014 11:08 9,3 C 8,9 C 74 % 1035,3 hPa 0,0 l/m 0 min 0 min 0,0 UV-I 160 W/m 12,9 km/h (3 Bft)
15.05.2014 11:10 9,3 C 8,9 C 74 % 1035,3 hPa 0,0 l/m 0 min 0 min 0,0 UV-I 162 W/m 12,9 km/h (3 Bft)
15.05.2014 11:12 9,3 C 8,9 C 74 % 1035,4 hPa 0,0 l/m 0 min 0 min 0,0 UV-I 165 W/m 12,9 km/h (3 Bft)
15.05.2014 11:14 9,3 C 8,9 C 74 % 1035,4 hPa 0,0 l/m 0 min 0 min 0,0 UV-I 169 W/m 12,9 km/h (3 Bft)
15.05.2014 11:16 9,4 C 8,9 C 74 % 1035,3 hPa 0,0 l/m 0 min 0 min 0,0 UV-I 171 W/m 10,3 km/h (2 Bft)
15.05.2014 11:18 9,3 C 8,9 C 73 % 1035,3 hPa 0,0 l/m 0 min 0 min 0,0 UV-I 171 W/m 18,0 km/h (3 Bft)
15.05.2014 11:20 9,3 C 8,9 C 73 % 1035,4 hPa 0,0 l/m 0 min 0 min 0,0 UV-I 169 W/m 12,9 km/h (3 Bft)
15.05.2014 11:22 9,4 C 8,9 C 73 % 1035,4 hPa 0,0 l/m 0 min 0 min 0,0 UV-I 167 W/m 12,9 km/h (3 Bft)
15.05.2014 11:24 9,4 C 8,9 C 74 % 1035,4 hPa 0,0 l/m 0 min 0 min 0,0 UV-I 167 W/m 12,9 km/h (3 Bft)
15.05.2014 11:26 9,4 C 8,9 C 73 % 1035,4 hPa 0,0 l/m 0 min 0 min 0,0 UV-I 172 W/m 12,9 km/h (3 Bft)
15.05.2014 11:28 9,4 C 8,9 C 73 % 1035,4 hPa 0,0 l/m 0 min 0 min 0,0 UV-I 179 W/m 10,3 km/h (2 Bft)
15.05.2014 11:30 9,4 C 8,9 C 73 % 1035,4 hPa 0,0 l/m 0 min 0 min 0,0 UV-I 183 W/m 10,3 km/h (2 Bft)
15.05.2014 11:32 9,4 C 8,9 C 73 % 1035,4 hPa 0,0 l/m 0 min 0 min 0,0 UV-I 183 W/m 10,3 km/h (2 Bft)
15.05.2014 11:34 9,4 C 8,9 C 73 % 1035,4 hPa 0,0 l/m 0 min 0 min 0,0 UV-I 181 W/m 12,9 km/h (3 Bft)
15.05.2014 11:36 9,5 C 8,9 C 73 % 1035,4 hPa 0,0 l/m 0 min 0 min 0,0 UV-I 183 W/m 12,9 km/h (3 Bft)
15.05.2014 11:38 9,5 C 9,4 C 74 % 1035,4 hPa 0,0 l/m 0 min 0 min 0,0 UV-I 186 W/m 10,3 km/h (2 Bft)
15.05.2014 11:40 9,5 C 8,9 C 73 % 1035,4 hPa 0,0 l/m 0 min 0 min 0,0 UV-I 197 W/m 12,9 km/h (3 Bft)
15.05.2014 11:42 9,5 C 9,4 C 73 % 1035,4 hPa 0,0 l/m 0 min 0 min 0,5 UV-I 209 W/m 10,3 km/h (2 Bft)
15.05.2014 11:44 9,6 C 9,4 C 74 % 1035,4 hPa 0,0 l/m 0 min 0 min 0,5 UV-I 214 W/m 2,6 km/h (1 Bft)
15.05.2014 11:46 9,6 C 9,4 C 73 % 1035,4 hPa 0,0 l/m 0 min 0 min 0,6 UV-I 220 W/m 15,4 km/h (3 Bft)
15.05.2014 11:48 9,7 C 9,4 C 73 % 1035,4 hPa 0,0 l/m 0 min 0 min 0,6 UV-I 225 W/m 15,4 km/h (3 Bft)
15.05.2014 11:50 9,8 C 9,4 C 74 % 1035,4 hPa 0,0 l/m 0 min 0 min 0,6 UV-I 232 W/m 7,7 km/h (2 Bft)
15.05.2014 11:52 9,8 C 10,0 C 74 % 1035,4 hPa 0,0 l/m 0 min 0 min 0,7 UV-I 237 W/m 5,1 km/h (1 Bft)
15.05.2014 11:54 9,9 C 10,0 C 74 % 1035,4 hPa 0,0 l/m 0 min 0 min 0,7 UV-I 246 W/m 7,7 km/h (2 Bft)
15.05.2014 11:56 9,9 C 10,0 C 73 % 1035,4 hPa 0,0 l/m 0 min 0 min 0,8 UV-I 253 W/m 12,9 km/h (3 Bft)
15.05.2014 11:58 9,9 C 10,0 C 73 % 1035,4 hPa 0,0 l/m 0 min 0 min 0,8 UV-I 260 W/m 2,6 km/h (1 Bft)
15.05.2014 12:00 9,9 C 10,0 C 73 % 1035,4 hPa 0,0 l/m 0 min 0 min 0,8 UV-I 258 W/m 10,3 km/h (2 Bft)
15.05.2014 12:02 9,9 C 10,0 C 73 % 1035,4 hPa 0,0 l/m 0 min 0 min 0,8 UV-I 255 W/m 7,7 km/h (2 Bft)
15.05.2014 12:06 10,1 C 10,0 C 74 % 1035,5 hPa 0,0 l/m 0 min 0 min 0,8 UV-I 258 W/m 10,3 km/h (2 Bft)
15.05.2014 12:08 10,1 C 10,6 C 74 % 1035,5 hPa 0,0 l/m 0 min 0 min 0,8 UV-I 255 W/m 10,3 km/h (2 Bft)
15.05.2014 12:10 10,1 C 10,6 C 74 % 1035,5 hPa 0,0 l/m 0 min 0 min 0,8 UV-I 251 W/m 5,1 km/h (1 Bft)
15.05.2014 12:12 10,1 C 10,0 C 73 % 1035,5 hPa 0,0 l/m 0 min 0 min 0,8 UV-I 241 W/m 12,9 km/h (3 Bft)
15.05.2014 12:14 10,0 C 10,0 C 73 % 1035,6 hPa 0,0 l/m 0 min 0 min 0,6 UV-I 221 W/m 5,1 km/h (1 Bft)
15.05.2014 12:16 10,1 C 10,0 C 73 % 1035,6 hPa 0,0 l/m 0 min 0 min 0,5 UV-I 206 W/m 7,7 km/h (2 Bft)
15.05.2014 12:18 10,1 C 10,0 C 73 % 1035,6 hPa 0,0 l/m 0 min 0 min 0,5 UV-I 207 W/m 10,3 km/h (2 Bft)
15.05.2014 12:20 10,0 C 10,0 C 74 % 1035,6 hPa 0,0 l/m 0 min 0 min 0,6 UV-I 220 W/m 10,3 km/h (2 Bft)
15.05.2014 12:22 10,1 C 10,0 C 74 % 1035,6 hPa 0,0 l/m 0 min 0 min 0,7 UV-I 236 W/m 10,3 km/h (2 Bft)
15.05.2014 12:24 10,0 C 10,0 C 73 % 1035,6 hPa 0,0 l/m 0 min 0 min 0,8 UV-I 253 W/m 12,9 km/h (3 Bft)
15.05.2014 12:26 10,0 C 10,0 C 74 % 1035,5 hPa 0,0 l/m 0 min 0 min 1,0 UV-I 269 W/m 10,3 km/h (2 Bft)
15.05.2014 12:28 10,0 C 10,0 C 74 % 1035,5 hPa 0,0 l/m 0 min 0 min 1,1 UV-I 285 W/m 10,3 km/h (2 Bft)
15.05.2014 12:30 10,1 C 10,6 C 74 % 1035,5 hPa 0,0 l/m 0 min 0 min 1,1 UV-I 287 W/m 10,3 km/h (2 Bft)
15.05.2014 12:32 10,1 C 10,6 C 74 % 1035,5 hPa 0,0 l/m 0 min 0 min 1,0 UV-I 279 W/m 15,4 km/h (3 Bft)
15.05.2014 12:34 10,2 C 10,6 C 74 % 1035,5 hPa 0,0 l/m 0 min 0 min 1,0 UV-I 276 W/m 2,6 km/h (1 Bft)
15.05.2014 12:36 10,2 C 10,6 C 74 % 1035,5 hPa 0,0 l/m 0 min 0 min 1,0 UV-I 271 W/m 7,7 km/h (2 Bft)
15.05.2014 12:38 10,2 C 10,6 C 74 % 1035,5 hPa 0,0 l/m 0 min 0 min 1,0 UV-I 271 W/m 7,7 km/h (2 Bft)
15.05.2014 12:40 10,2 C 10,6 C 74 % 1035,5 hPa 0,0 l/m 0 min 0 min 0,9 UV-I 262 W/m 5,1 km/h (1 Bft)
15.05.2014 12:42 10,2 C 10,6 C 74 % 1035,5 hPa 0,0 l/m 0 min 0 min 0,8 UV-I 243 W/m 15,4 km/h (3 Bft)
15.05.2014 12:44 10,3 C 10,6 C 76 % 1035,5 hPa 0,0 l/m 0 min 0 min 0,8 UV-I 243 W/m 10,3 km/h (2 Bft)
15.05.2014 12:46 10,4 C 10,6 C 76 % 1035,5 hPa 0,0 l/m 0 min 0 min 0,8 UV-I 243 W/m 12,9 km/h (3 Bft)
15.05.2014 12:48 10,4 C 10,6 C 74 % 1035,5 hPa 0,0 l/m 0 min 0 min 0,8 UV-I 239 W/m 15,4 km/h (3 Bft)
15.05.2014 12:50 10,3 C 10,0 C 73 % 1035,5 hPa 0,0 l/m 0 min 0 min 0,8 UV-I 239 W/m 15,4 km/h (3 Bft)
15.05.2014 12:52 10,2 C 10,0 C 74 % 1035,5 hPa 0,0 l/m 0 min 0 min 0,7 UV-I 239 W/m 15,4 km/h (3 Bft)
15.05.2014 12:54 10,3 C 10,6 C 75 % 1035,5 hPa 0,0 l/m 0 min 0 min 0,8 UV-I 239 W/m 10,3 km/h (2 Bft)
15.05.2014 12:56 10,3 C 10,6 C 74 % 1035,5 hPa 0,0 l/m 0 min 0 min 0,8 UV-I 246 W/m 10,3 km/h (2 Bft)
15.05.2014 12:58 10,3 C 10,6 C 74 % 1035,5 hPa 0,0 l/m 0 min 0 min 0,8 UV-I 262 W/m 10,3 km/h (2 Bft)
15.05.2014 13:00 10,3 C 10,6 C 75 % 1035,5 hPa 0,0 l/m 0 min 0 min 1,0 UV-I 276 W/m 0,0 km/h (0 Bft)
15.05.2014 13:02 10,3 C 10,6 C 74 % 1035,5 hPa 0,0 l/m 0 min 0 min 1,1 UV-I 299 W/m 10,3 km/h (2 Bft)
15.05.2014 13:06 10,4 C 11,1 C 74 % 1035,5 hPa 0,0 l/m 0 min 0 min 1,4 UV-I 348 W/m 10,3 km/h (2 Bft)
15.05.2014 13:08 10,3 C 11,1 C 73 % 1035,5 hPa 0,0 l/m 0 min 0 min 1,5 UV-I 357 W/m 10,3 km/h (2 Bft)
15.05.2014 13:10 10,4 C 11,1 C 74 % 1035,5 hPa 0,0 l/m 0 min 0 min 1,6 UV-I 390 W/m 7,7 km/h (2 Bft)
15.05.2014 13:12 10,6 C 11,7 C 74 % 1035,5 hPa 0,0 l/m 2 min 0 min 2,1 UV-I 459 W/m 7,7 km/h (2 Bft)
15.05.2014 13:14 10,7 C 11,7 C 74 % 1035,5 hPa 0,0 l/m 2 min 0 min 2,3 UV-I 571 W/m 12,9 km/h (3 Bft)
15.05.2014 13:16 10,8 C 12,2 C 74 % 1035,5 hPa 0,0 l/m 2 min 0 min 2,4 UV-I 571 W/m 10,3 km/h (2 Bft)
15.05.2014 13:18 11,1 C 12,8 C 75 % 1035,5 hPa 0,0 l/m 2 min 0 min 2,5 UV-I 628 W/m 7,7 km/h (2 Bft)
15.05.2014 13:20 11,5 C 12,8 C 74 % 1035,5 hPa 0,0 l/m 2 min 0 min 2,4 UV-I 693 W/m 10,3 km/h (2 Bft)
15.05.2014 13:22 11,6 C 12,8 C 72 % 1035,4 hPa 0,0 l/m 2 min 0 min 2,1 UV-I 937 W/m 12,9 km/h (3 Bft)
15.05.2014 13:24 12,1 C 13,3 C 76 % 1035,2 hPa 0,0 l/m 2 min 0 min 1,8 UV-I 874 W/m 0,0 km/h (0 Bft)
15.05.2014 13:26 12,4 C 13,3 C 73 % 1035,2 hPa 0,0 l/m 2 min 0 min 1,7 UV-I 853 W/m 5,1 km/h (1 Bft)
15.05.2014 13:28 12,8 C 13,3 C 74 % 1035,1 hPa 0,0 l/m 2 min 0 min 1,7 UV-I 849 W/m 12,9 km/h (3 Bft)
15.05.2014 13:30 12,6 C 12,8 C 69 % 1035,1 hPa 0,0 l/m 2 min 0 min 1,7 UV-I 854 W/m 18,0 km/h (3 Bft)
15.05.2014 13:32 12,6 C 12,8 C 70 % 1035,0 hPa 0,0 l/m 2 min 0 min 1,7 UV-I 858 W/m 12,9 km/h (3 Bft)
15.05.2014 13:34 12,5 C 12,8 C 69 % 1035,0 hPa 0,0 l/m 2 min 0 min 1,8 UV-I 861 W/m 15,4 km/h (3 Bft)
15.05.2014 13:36 12,3 C 12,2 C 70 % 1034,9 hPa 0,0 l/m 2 min 0 min 1,9 UV-I 858 W/m 15,4 km/h (3 Bft)
15.05.2014 13:38 12,5 C 12,8 C 73 % 1035,0 hPa 0,0 l/m 2 min 0 min 2,2 UV-I 911 W/m 0,0 km/h (0 Bft)
15.05.2014 13:40 12,7 C 13,3 C 72 % 1035,0 hPa 0,0 l/m 2 min 0 min 2,7 UV-I 911 W/m 0,0 km/h (0 Bft)
15.05.2014 13:42 12,8 C 13,3 C 73 % 1035,0 hPa 0,0 l/m 2 min 0 min 2,0 UV-I 911 W/m 0,0 km/h (0 Bft)
15.05.2014 13:44 12,7 C 13,3 C 70 % 1035,1 hPa 0,0 l/m 0 min 0 min 3,4 UV-I 401 W/m 15,4 km/h (3 Bft)
15.05.2014 13:46 12,3 C 12,8 C 69 % 1035,1 hPa 0,0 l/m 0 min 0 min 1,7 UV-I 227 W/m 12,9 km/h (3 Bft)
15.05.2014 13:48 12,0 C 12,2 C 70 % 1035,0 hPa 0,0 l/m 0 min 0 min 1,8 UV-I 243 W/m 12,9 km/h (3 Bft)
15.05.2014 13:50 11,9 C 12,2 C 72 % 1035,0 hPa 0,0 l/m 0 min 0 min 3,7 UV-I 243 W/m 7,7 km/h (2 Bft)
15.05.2014 13:52 12,2 C 13,9 C 73 % 1035,0 hPa 0,0 l/m 2 min 0 min 4,3 UV-I 911 W/m 12,9 km/h (3 Bft)
15.05.2014 13:54 12,4 C 14,4 C 72 % 1035,1 hPa 0,0 l/m 2 min 0 min 4,5 UV-I 958 W/m 18,0 km/h (3 Bft)
15.05.2014 13:56 12,9 C 15,6 C 73 % 1035,0 hPa 0,0 l/m 2 min 0 min 4,6 UV-I 995 W/m 18,0 km/h (3 Bft)
15.05.2014 13:58 13,1 C 15,0 C 71 % 1035,0 hPa 0,0 l/m 2 min 0 min 3,9 UV-I 1009 W/m 15,4 km/h (3 Bft)
15.05.2014 14:00 13,3 C 15,0 C 71 % 1035,0 hPa 0,0 l/m 2 min 0 min 4,4 UV-I 1027 W/m 10,3 km/h (2 Bft)
15.05.2014 14:02 13,7 C 15,0 C 74 % 1035,0 hPa 0,0 l/m 2 min 0 min 2,6 UV-I 1027 W/m 7,7 km/h (2 Bft)
15.05.2014 14:06 12,9 C 13,9 C 69 % 1034,9 hPa 0,0 l/m 0 min 0 min 2,0 UV-I 422 W/m 10,3 km/h (2 Bft)
15.05.2014 14:08 12,6 C 13,3 C 69 % 1035,0 hPa 0,0 l/m 0 min 0 min 1,6 UV-I 359 W/m 12,9 km/h (3 Bft)
15.05.2014 14:10 12,4 C 13,3 C 71 % 1034,9 hPa 0,0 l/m 0 min 0 min 1,4 UV-I 322 W/m 18,0 km/h (3 Bft)
15.05.2014 14:12 12,3 C 12,8 C 70 % 1035,0 hPa 0,0 l/m 0 min 0 min 1,2 UV-I 315 W/m 15,4 km/h (3 Bft)
15.05.2014 14:14 12,2 C 12,8 C 70 % 1035,0 hPa 0,0 l/m 0 min 0 min 1,2 UV-I 308 W/m 0,0 km/h (0 Bft)
15.05.2014 14:16 12,2 C 12,8 C 71 % 1035,0 hPa 0,0 l/m 0 min 0 min 1,0 UV-I 292 W/m 7,7 km/h (2 Bft)
15.05.2014 14:18 12,1 C 12,8 C 71 % 1035,0 hPa 0,0 l/m 0 min 0 min 0,8 UV-I 253 W/m 7,7 km/h (2 Bft)
15.05.2014 14:20 12,0 C 12,2 C 71 % 1035,0 hPa 0,0 l/m 0 min 0 min 0,5 UV-I 192 W/m 10,3 km/h (2 Bft)
15.05.2014 14:22 11,9 C 11,7 C 72 % 1035,0 hPa 0,0 l/m 0 min 0 min 0,0 UV-I 163 W/m 15,4 km/h (3 Bft)
15.05.2014 14:24 11,8 C 11,7 C 72 % 1035,0 hPa 0,0 l/m 0 min 0 min 0,0 UV-I 146 W/m 10,3 km/h (2 Bft)
15.05.2014 14:26 11,7 C 11,7 C 73 % 1035,0 hPa 0,0 l/m 0 min 0 min 0,0 UV-I 139 W/m 12,9 km/h (3 Bft)
15.05.2014 14:28 11,7 C 11,1 C 73 % 1035,0 hPa 0,0 l/m 0 min 0 min 0,0 UV-I 149 W/m 10,3 km/h (2 Bft)
15.05.2014 14:30 11,6 C 11,1 C 73 % 1035,0 hPa 0,0 l/m 0 min 0 min 0,0 UV-I 165 W/m 7,7 km/h (2 Bft)
15.05.2014 14:32 11,7 C 11,7 C 74 % 1034,9 hPa 0,0 l/m 0 min 0 min 0,5 UV-I 206 W/m 12,9 km/h (3 Bft)
15.05.2014 14:34 11,7 C 11,7 C 73 % 1035,0 hPa 0,0 l/m 0 min 0 min 0,8 UV-I 236 W/m 23,2 km/h (4 Bft)
15.05.2014 14:36 11,7 C 11,7 C 74 % 1034,9 hPa 0,0 l/m 0 min 0 min 1,0 UV-I 257 W/m 7,7 km/h (2 Bft)
15.05.2014 14:38 11,7 C 11,7 C 74 % 1034,9 hPa 0,0 l/m 0 min 0 min 1,0 UV-I 311 W/m 12,9 km/h (3 Bft)
15.05.2014 14:40 11,7 C 12,2 C 74 % 1034,9 hPa 0,0 l/m 0 min 0 min 1,7 UV-I 396 W/m 10,3 km/h (2 Bft)
15.05.2014 14:42 11,8 C 12,2 C 72 % 1034,8 hPa 0,0 l/m 2 min 0 min 2,0 UV-I 452 W/m 10,3 km/h (2 Bft)
15.05.2014 14:44 11,9 C 12,8 C 74 % 1034,8 hPa 0,0 l/m 2 min 0 min 2,4 UV-I 606 W/m 0,0 km/h (0 Bft)
15.05.2014 14:46 12,2 C 12,8 C 73 % 1034,8 hPa 0,0 l/m 2 min 0 min 2,6 UV-I 598 W/m 18,0 km/h (3 Bft)
15.05.2014 14:48 12,2 C 12,8 C 72 % 1034,8 hPa 0,0 l/m 2 min 0 min 2,4 UV-I 570 W/m 15,4 km/h (3 Bft)
15.05.2014 14:50 12,2 C 12,8 C 71 % 1034,8 hPa 0,0 l/m 2 min 0 min 2,9 UV-I 592 W/m 15,4 km/h (3 Bft)
15.05.2014 14:52 12,4 C 13,3 C 72 % 1034,8 hPa 0,0 l/m 2 min 0 min 2,6 UV-I 570 W/m 15,4 km/h (3 Bft)
15.05.2014 14:54 12,4 C 12,8 C 69 % 1034,8 hPa 0,0 l/m 2 min 0 min 2,4 UV-I 508 W/m 12,9 km/h (3 Bft)
15.05.2014 14:56 12,3 C 12,8 C 69 % 1034,8 hPa 0,0 l/m 2 min 0 min 2,3 UV-I 473 W/m 15,4 km/h (3 Bft)
15.05.2014 14:58 12,6 C 13,3 C 71 % 1034,9 hPa 0,0 l/m 2 min 0 min 2,2 UV-I 468 W/m 10,3 km/h (2 Bft)
15.05.2014 15:00 12,7 C 13,3 C 70 % 1034,9 hPa 0,0 l/m 2 min 0 min 2,2 UV-I 506 W/m 10,3 km/h (2 Bft)
15.05.2014 15:02 12,6 C 13,3 C 69 % 1034,9 hPa 0,0 l/m 2 min 0 min 2,7 UV-I 613 W/m 10,3 km/h (2 Bft)
15.05.2014 15:06 12,7 C 13,9 C 71 % 1034,9 hPa 0,0 l/m 2 min 0 min 2,6 UV-I 613 W/m 12,9 km/h (3 Bft)
15.05.2014 15:08 12,9 C 14,4 C 72 % 1035,0 hPa 0,0 l/m 2 min 0 min 2,5 UV-I 598 W/m 20,6 km/h (4 Bft)
15.05.2014 15:10 13,0 C 14,4 C 70 % 1034,9 hPa 0,0 l/m 2 min 0 min 2,2 UV-I 554 W/m 12,9 km/h (3 Bft)
15.05.2014 15:12 13,0 C 13,9 C 70 % 1034,8 hPa 0,0 l/m 2 min 0 min 2,1 UV-I 501 W/m 12,9 km/h (3 Bft)
15.05.2014 15:14 13,1 C 14,4 C 70 % 1034,8 hPa 0,0 l/m 2 min 0 min 2,1 UV-I 497 W/m 12,9 km/h (3 Bft)
15.05.2014 15:16 13,1 C 14,4 C 69 % 1034,8 hPa 0,0 l/m 2 min 0 min 2,2 UV-I 503 W/m 12,9 km/h (3 Bft)
15.05.2014 15:18 13,0 C 14,4 C 70 % 1034,8 hPa 0,0 l/m 2 min 0 min 3,1 UV-I 501 W/m 7,7 km/h (2 Bft)
15.05.2014 15:20 13,2 C 14,4 C 70 % 1034,8 hPa 0,0 l/m 2 min 0 min 2,3 UV-I 501 W/m 12,9 km/h (3 Bft)
15.05.2014 15:22 13,3 C 15,0 C 72 % 1034,8 hPa 0,0 l/m 2 min 0 min 2,0 UV-I 501 W/m 10,3 km/h (2 Bft)
15.05.2014 15:24 13,4 C 14,4 C 70 % 1034,8 hPa 0,0 l/m 2 min 0 min 2,3 UV-I 519 W/m 10,3 km/h (2 Bft)
15.05.2014 15:26 13,4 C 14,4 C 70 % 1034,9 hPa 0,0 l/m 2 min 0 min 1,8 UV-I 457 W/m 15,4 km/h (3 Bft)
15.05.2014 15:28 13,2 C 13,9 C 70 % 1034,9 hPa 0,0 l/m 2 min 0 min 1,7 UV-I 424 W/m 15,4 km/h (3 Bft)
15.05.2014 15:30 13,2 C 14,4 C 69 % 1034,8 hPa 0,0 l/m 2 min 0 min 1,7 UV-I 448 W/m 7,7 km/h (2 Bft)
15.05.2014 15:32 13,1 C 13,9 C 69 % 1034,8 hPa 0,0 l/m 2 min 0 min 1,9 UV-I 520 W/m 15,4 km/h (3 Bft)
15.05.2014 15:34 13,0 C 13,9 C 70 % 1034,8 hPa 0,0 l/m 2 min 0 min 1,7 UV-I 473 W/m 15,4 km/h (3 Bft)
15.05.2014 15:36 13,0 C 13,9 C 70 % 1034,7 hPa 0,0 l/m 0 min 0 min 1,4 UV-I 392 W/m 7,7 km/h (2 Bft)
15.05.2014 15:38 12,9 C 13,9 C 70 % 1034,7 hPa 0,0 l/m 0 min 0 min 0,9 UV-I 362 W/m 12,9 km/h (3 Bft)
15.05.2014 15:40 12,9 C 13,3 C 70 % 1034,7 hPa 0,0 l/m 0 min 0 min 0,8 UV-I 295 W/m 15,4 km/h (3 Bft)
15.05.2014 15:42 12,9 C 13,3 C 70 % 1034,7 hPa 0,0 l/m 0 min 0 min 0,8 UV-I 294 W/m 10,3 km/h (2 Bft)
15.05.2014 15:44 12,9 C 13,3 C 71 % 1034,8 hPa 0,0 l/m 0 min 0 min 0,8 UV-I 287 W/m 10,3 km/h (2 Bft)
15.05.2014 15:46 12,8 C 13,3 C 70 % 1034,8 hPa 0,0 l/m 0 min 0 min 0,7 UV-I 272 W/m 12,9 km/h (3 Bft)
15.05.2014 15:48 12,7 C 12,8 C 69 % 1034,8 hPa 0,0 l/m 0 min 0 min 0,6 UV-I 248 W/m 12,9 km/h (3 Bft)
15.05.2014 15:50 12,7 C 12,8 C 70 % 1034,8 hPa 0,0 l/m 0 min 0 min 0,5 UV-I 237 W/m 10,3 km/h (2 Bft)
15.05.2014 15:52 12,8 C 12,8 C 70 % 1034,8 hPa 0,0 l/m 0 min 0 min 0,5 UV-I 230 W/m 7,7 km/h (2 Bft)
15.05.2014 15:54 12,8 C 12,8 C 69 % 1034,9 hPa 0,0 l/m 0 min 0 min 0,0 UV-I 213 W/m 10,3 km/h (2 Bft)
15.05.2014 15:56 12,7 C 12,8 C 69 % 1034,8 hPa 0,0 l/m 0 min 0 min 0,0 UV-I 199 W/m 12,9 km/h (3 Bft)
15.05.2014 15:58 12,6 C 12,2 C 69 % 1034,9 hPa 0,0 l/m 0 min 0 min 0,0 UV-I 179 W/m 12,9 km/h (3 Bft)
15.05.2014 16:00 12,5 C 12,2 C 70 % 1034,8 hPa 0,0 l/m 0 min 0 min 0,0 UV-I 162 W/m 10,3 km/h (2 Bft)
15.05.2014 16:02 12,4 C 12,2 C 71 % 1034,8 hPa 0,0 l/m 0 min 0 min 0,0 UV-I 163 W/m 10,3 km/h (2 Bft)
15.05.2014 16:06 12,4 C 12,2 C 71 % 1034,8 hPa 0,0 l/m 0 min 0 min 0,0 UV-I 178 W/m 10,3 km/h (2 Bft)
15.05.2014 16:08 12,4 C 12,2 C 72 % 1034,8 hPa 0,0 l/m 0 min 0 min 0,0 UV-I 185 W/m 2,6 km/h (1 Bft)
15.05.2014 16:10 12,4 C 12,2 C 72 % 1034,8 hPa 0,0 l/m 0 min 0 min 0,0 UV-I 190 W/m 7,7 km/h (2 Bft)
15.05.2014 16:12 12,4 C 12,2 C 72 % 1034,8 hPa 0,0 l/m 0 min 0 min 0,0 UV-I 202 W/m 10,3 km/h (2 Bft)
15.05.2014 16:14 12,4 C 12,2 C 72 % 1034,8 hPa 0,0 l/m 0 min 0 min 0,0 UV-I 207 W/m 7,7 km/h (2 Bft)
15.05.2014 16:16 12,4 C 12,2 C 72 % 1034,8 hPa 0,0 l/m 0 min 0 min 0,0 UV-I 209 W/m 2,6 km/h (1 Bft)
15.05.2014 16:18 12,5 C 12,2 C 73 % 1034,7 hPa 0,0 l/m 0 min 0 min 0,0 UV-I 218 W/m 10,3 km/h (2 Bft)
15.05.2014 16:20 12,6 C 12,2 C 72 % 1034,7 hPa 0,0 l/m 0 min 0 min 0,0 UV-I 221 W/m 12,9 km/h (3 Bft)
15.05.2014 16:22 12,6 C 12,2 C 72 % 1034,7 hPa 0,0 l/m 0 min 0 min 0,0 UV-I 220 W/m 15,4 km/h (3 Bft)
15.05.2014 16:24 12,6 C 12,2 C 73 % 1034,7 hPa 0,0 l/m 0 min 0 min 0,0 UV-I 223 W/m 10,3 km/h (2 Bft)
15.05.2014 16:26 12,7 C 12,2 C 72 % 1034,7 hPa 0,0 l/m 0 min 0 min 0,0 UV-I 227 W/m 12,9 km/h (3 Bft)
15.05.2014 16:28 12,6 C 12,2 C 71 % 1034,7 hPa 0,0 l/m 0 min 0 min 0,0 UV-I 230 W/m 15,4 km/h (3 Bft)
15.05.2014 16:30 12,6 C 12,2 C 71 % 1034,7 hPa 0,0 l/m 0 min 0 min 0,0 UV-I 236 W/m 18,0 km/h (3 Bft)
15.05.2014 16:32 12,6 C 12,2 C 72 % 1034,7 hPa 0,0 l/m 0 min 0 min 0,0 UV-I 234 W/m 20,6 km/h (4 Bft)
15.05.2014 16:34 12,5 C 12,2 C 72 % 1034,7 hPa 0,0 l/m 0 min 0 min 0,0 UV-I 236 W/m 15,4 km/h (3 Bft)
15.05.2014 16:36 12,5 C 12,2 C 72 % 1034,6 hPa 0,0 l/m 0 min 0 min 0,5 UV-I 253 W/m 12,9 km/h (3 Bft)
15.05.2014 16:38 12,5 C 12,2 C 72 % 1034,6 hPa 0,0 l/m 0 min 0 min 0,6 UV-I 265 W/m 18,0 km/h (3 Bft)
15.05.2014 16:40 12,5 C 12,2 C 72 % 1034,6 hPa 0,0 l/m 0 min 0 min 0,6 UV-I 279 W/m 15,4 km/h (3 Bft)
15.05.2014 16:42 12,5 C 12,2 C 73 % 1034,6 hPa 0,0 l/m 0 min 0 min 0,7 UV-I 290 W/m 18,0 km/h (3 Bft)
15.05.2014 16:44 12,5 C 12,2 C 73 % 1034,6 hPa 0,0 l/m 0 min 0 min 0,8 UV-I 299 W/m 23,2 km/h (4 Bft)
15.05.2014 16:46 12,6 C 12,8 C 73 % 1034,6 hPa 0,0 l/m 0 min 0 min 0,9 UV-I 320 W/m 12,9 km/h (3 Bft)
15.05.2014 16:48 12,7 C 12,8 C 73 % 1034,6 hPa 0,0 l/m 2 min 0 min 1,2 UV-I 571 W/m 18,0 km/h (3 Bft)
15.05.2014 16:50 12,8 C 13,3 C 73 % 1034,6 hPa 0,0 l/m 2 min 0 min 0,9 UV-I 571 W/m 20,6 km/h (4 Bft)
15.05.2014 16:52 12,9 C 13,3 C 72 % 1034,6 hPa 0,0 l/m 2 min 0 min 0,8 UV-I 346 W/m 12,9 km/h (3 Bft)
15.05.2014 16:54 12,9 C 13,3 C 72 % 1034,7 hPa 0,0 l/m 0 min 0 min 0,8 UV-I 338 W/m 12,9 km/h (3 Bft)
15.05.2014 16:56 13,1 C 13,3 C 72 % 1034,6 hPa 0,0 l/m 0 min 0 min 0,8 UV-I 323 W/m 10,3 km/h (2 Bft)
15.05.2014 16:58 13,1 C 13,3 C 72 % 1034,6 hPa 0,0 l/m 0 min 0 min 0,8 UV-I 316 W/m 12,9 km/h (3 Bft)
15.05.2014 17:00 13,1 C 13,3 C 71 % 1034,6 hPa 0,0 l/m 0 min 0 min 0,8 UV-I 311 W/m 15,4 km/h (3 Bft)
15.05.2014 17:02 13,0 C 13,3 C 71 % 1034,7 hPa 0,0 l/m 0 min 0 min 0,8 UV-I 311 W/m 15,4 km/h (3 Bft)
15.05.2014 17:06 12,8 C 13,3 C 71 % 1034,7 hPa 0,0 l/m 2 min 0 min 0,8 UV-I 339 W/m 18,0 km/h (3 Bft)
15.05.2014 17:08 13,0 C 13,3 C 72 % 1034,8 hPa 0,0 l/m 2 min 0 min 0,9 UV-I 387 W/m 12,9 km/h (3 Bft)
15.05.2014 17:10 13,0 C 13,3 C 71 % 1034,8 hPa 0,0 l/m 2 min 0 min 0,9 UV-I 415 W/m 20,6 km/h (4 Bft)
15.05.2014 17:12 13,0 C 13,3 C 72 % 1034,8 hPa 0,0 l/m 2 min 0 min 1,2 UV-I 457 W/m 12,9 km/h (3 Bft)
15.05.2014 17:14 13,0 C 13,3 C 71 % 1034,8 hPa 0,0 l/m 2 min 0 min 0,7 UV-I 357 W/m 18,0 km/h (3 Bft)
15.05.2014 17:16 12,9 C 13,3 C 71 % 1034,8 hPa 0,0 l/m 2 min 0 min 0,7 UV-I 346 W/m 12,9 km/h (3 Bft)
15.05.2014 17:18 12,9 C 13,3 C 71 % 1034,8 hPa 0,0 l/m 2 min 0 min 0,6 UV-I 334 W/m 12,9 km/h (3 Bft)
15.05.2014 17:20 13,1 C 13,3 C 72 % 1034,8 hPa 0,0 l/m 2 min 0 min 0,6 UV-I 334 W/m 10,3 km/h (2 Bft)
15.05.2014 17:22 13,2 C 13,3 C 71 % 1034,8 hPa 0,0 l/m 2 min 0 min 0,5 UV-I 318 W/m 15,4 km/h (3 Bft)
15.05.2014 17:24 13,1 C 13,3 C 71 % 1034,8 hPa 0,0 l/m 0 min 0 min 0,5 UV-I 306 W/m 20,6 km/h (4 Bft)
15.05.2014 17:26 13,1 C 13,3 C 71 % 1034,8 hPa 0,0 l/m 0 min 0 min 0,0 UV-I 287 W/m 12,9 km/h (3 Bft)
15.05.2014 17:28 13,0 C 13,3 C 71 % 1034,8 hPa 0,0 l/m 0 min 0 min 0,5 UV-I 297 W/m 10,3 km/h (2 Bft)
15.05.2014 17:30 13,0 C 13,3 C 71 % 1034,8 hPa 0,0 l/m 0 min 0 min 0,0 UV-I 287 W/m 15,4 km/h (3 Bft)
15.05.2014 17:32 13,0 C 13,3 C 72 % 1034,8 hPa 0,0 l/m 0 min 0 min 0,0 UV-I 288 W/m 12,9 km/h (3 Bft)
15.05.2014 17:34 13,1 C 13,3 C 72 % 1034,8 hPa 0,0 l/m 0 min 0 min 0,0 UV-I 283 W/m 10,3 km/h (2 Bft)
15.05.2014 17:36 13,2 C 13,3 C 72 % 1034,8 hPa 0,0 l/m 0 min 0 min 0,0 UV-I 276 W/m 15,4 km/h (3 Bft)
15.05.2014 17:38 13,1 C 13,3 C 70 % 1034,8 hPa 0,0 l/m 0 min 0 min 0,0 UV-I 258 W/m 15,4 km/h (3 Bft)
15.05.2014 17:40 13,0 C 12,8 C 70 % 1034,8 hPa 0,0 l/m 0 min 0 min 0,0 UV-I 241 W/m 10,3 km/h (2 Bft)
15.05.2014 17:42 12,9 C 12,8 C 70 % 1034,8 hPa 0,0 l/m 0 min 0 min 0,0 UV-I 230 W/m 7,7 km/h (2 Bft)
15.05.2014 17:44 12,9 C 12,8 C 71 % 1034,7 hPa 0,0 l/m 0 min 0 min 0,0 UV-I 221 W/m 7,7 km/h (2 Bft)
15.05.2014 17:46 12,9 C 12,8 C 70 % 1034,8 hPa 0,0 l/m 0 min 0 min 0,0 UV-I 206 W/m 5,1 km/h (1 Bft)
15.05.2014 17:48 12,9 C 12,8 C 70 % 1034,8 hPa 0,0 l/m 0 min 0 min 0,0 UV-I 200 W/m 12,9 km/h (3 Bft)
15.05.2014 17:50 12,8 C 12,8 C 70 % 1034,8 hPa 0,0 l/m 0 min 0 min 0,0 UV-I 186 W/m 5,1 km/h (1 Bft)
15.05.2014 17:52 12,8 C 12,8 C 71 % 1034,8 hPa 0,0 l/m 0 min 0 min 0,0 UV-I 165 W/m 10,3 km/h (2 Bft)
15.05.2014 17:54 12,8 C 12,8 C 71 % 1034,7 hPa 0,0 l/m 0 min 0 min 0,0 UV-I 158 W/m 10,3 km/h (2 Bft)
15.05.2014 17:56 12,8 C 12,8 C 72 % 1034,8 hPa 0,0 l/m 0 min 0 min 0,0 UV-I 153 W/m 2,6 km/h (1 Bft)
15.05.2014 17:58 12,8 C 12,8 C 73 % 1034,7 hPa 0,0 l/m 0 min 0 min 0,0 UV-I 146 W/m 5,1 km/h (1 Bft)
15.05.2014 18:00 12,8 C 12,2 C 72 % 1034,7 hPa 0,0 l/m 0 min 0 min 0,0 UV-I 144 W/m 7,7 km/h (2 Bft)
15.05.2014 18:02 12,7 C 12,2 C 72 % 1034,7 hPa 0,0 l/m 0 min 0 min 0,0 UV-I 148 W/m 10,3 km/h (2 Bft)
15.05.2014 18:06 12,7 C 12,2 C 71 % 1034,7 hPa 0,0 l/m 0 min 0 min 0,0 UV-I 148 W/m 12,9 km/h (3 Bft)
15.05.2014 18:08 12,6 C 12,2 C 71 % 1034,8 hPa 0,0 l/m 0 min 0 min 0,0 UV-I 141 W/m 10,3 km/h (2 Bft)
15.05.2014 18:10 12,6 C 12,2 C 71 % 1034,7 hPa 0,0 l/m 0 min 0 min 0,0 UV-I 128 W/m 7,7 km/h (2 Bft)
15.05.2014 18:12 12,6 C 12,2 C 72 % 1034,7 hPa 0,0 l/m 0 min 0 min 0,0 UV-I 127 W/m 15,4 km/h (3 Bft)
15.05.2014 18:14 12,6 C 12,2 C 72 % 1034,7 hPa 0,0 l/m 0 min 0 min 0,0 UV-I 128 W/m 15,4 km/h (3 Bft)
15.05.2014 18:16 12,6 C 11,7 C 72 % 1034,7 hPa 0,0 l/m 0 min 0 min 0,0 UV-I 134 W/m 12,9 km/h (3 Bft)
15.05.2014 18:18 12,6 C 12,2 C 72 % 1034,7 hPa 0,0 l/m 0 min 0 min 0,0 UV-I 141 W/m 7,7 km/h (2 Bft)
15.05.2014 18:20 12,6 C 12,2 C 72 % 1034,7 hPa 0,0 l/m 0 min 0 min 0,0 UV-I 148 W/m 0,0 km/h (0 Bft)
15.05.2014 18:22 12,6 C 12,2 C 72 % 1034,7 hPa 0,0 l/m 0 min 0 min 0,0 UV-I 163 W/m 0,0 km/h (0 Bft)
15.05.2014 18:24 12,7 C 12,2 C 73 % 1034,7 hPa 0,0 l/m 0 min 0 min 0,0 UV-I 167 W/m 2,6 km/h (1 Bft)
15.05.2014 18:26 12,7 C 12,2 C 73 % 1034,7 hPa 0,0 l/m 0 min 0 min 0,0 UV-I 163 W/m 5,1 km/h (1 Bft)
15.05.2014 18:28 12,7 C 12,2 C 73 % 1034,7 hPa 0,0 l/m 0 min 0 min 0,0 UV-I 151 W/m 12,9 km/h (3 Bft)
15.05.2014 18:30 12,7 C 12,2 C 72 % 1034,7 hPa 0,0 l/m 0 min 0 min 0,0 UV-I 148 W/m 12,9 km/h (3 Bft)
15.05.2014 18:32 12,7 C 12,2 C 73 % 1034,7 hPa 0,0 l/m 0 min 0 min 0,0 UV-I 144 W/m 15,4 km/h (3 Bft)
15.05.2014 18:34 12,7 C 12,2 C 73 % 1034,7 hPa 0,0 l/m 0 min 0 min 0,0 UV-I 142 W/m 10,3 km/h (2 Bft)
15.05.2014 18:36 12,6 C 12,2 C 73 % 1034,7 hPa 0,0 l/m 0 min 0 min 0,0 UV-I 137 W/m 7,7 km/h (2 Bft)
15.05.2014 18:38 12,6 C 12,2 C 73 % 1034,7 hPa 0,0 l/m 0 min 0 min 0,0 UV-I 134 W/m 7,7 km/h (2 Bft)
15.05.2014 18:40 12,6 C 12,2 C 73 % 1034,7 hPa 0,0 l/m 0 min 0 min 0,0 UV-I 134 W/m 12,9 km/h (3 Bft)
15.05.2014 18:42 12,6 C 12,2 C 74 % 1034,7 hPa 0,0 l/m 0 min 0 min 0,0 UV-I 132 W/m 0,0 km/h (0 Bft)
15.05.2014 18:44 12,6 C 12,2 C 74 % 1034,6 hPa 0,0 l/m 0 min 0 min 0,0 UV-I 132 W/m 0,0 km/h (0 Bft)
15.05.2014 18:46 12,6 C 12,2 C 74 % 1034,7 hPa 0,0 l/m 0 min 0 min 0,0 UV-I 132 W/m 12,9 km/h (3 Bft)
15.05.2014 18:48 12,6 C 12,2 C 72 % 1034,6 hPa 0,0 l/m 0 min 0 min 0,0 UV-I 134 W/m 10,3 km/h (2 Bft)
15.05.2014 18:50 12,6 C 12,2 C 72 % 1034,7 hPa 0,0 l/m 0 min 0 min 0,0 UV-I 127 W/m 10,3 km/h (2 Bft)
15.05.2014 18:52 12,6 C 12,2 C 72 % 1034,7 hPa 0,0 l/m 0 min 0 min 0,0 UV-I 118 W/m 12,9 km/h (3 Bft)
15.05.2014 18:54 12,6 C 12,2 C 72 % 1034,7 hPa 0,0 l/m 0 min 0 min 0,0 UV-I 114 W/m 7,7 km/h (2 Bft)
15.05.2014 18:56 12,6 C 12,2 C 73 % 1034,7 hPa 0,0 l/m 0 min 0 min 0,0 UV-I 105 W/m 7,7 km/h (2 Bft)
15.05.2014 18:58 12,6 C 11,7 C 72 % 1034,7 hPa 0,0 l/m 0 min 0 min 0,0 UV-I 102 W/m 7,7 km/h (2 Bft)
15.05.2014 19:00 12,6 C 11,7 C 72 % 1034,6 hPa 0,0 l/m 0 min 0 min 0,0 UV-I 100 W/m 7,7 km/h (2 Bft)
15.05.2014 19:02 12,6 C 11,7 C 72 % 1034,6 hPa 0,0 l/m 0 min 0 min 0,0 UV-I 102 W/m 7,7 km/h (2 Bft)
15.05.2014 19:06 12,4 C 11,7 C 72 % 1034,6 hPa 0,0 l/m 0 min 0 min 0,0 UV-I 98 W/m 15,4 km/h (3 Bft)
15.05.2014 19:08 12,4 C 11,7 C 72 % 1034,6 hPa 0,0 l/m 0 min 0 min 0,0 UV-I 91 W/m 10,3 km/h (2 Bft)
15.05.2014 19:10 12,4 C 11,7 C 72 % 1034,5 hPa 0,0 l/m 0 min 0 min 0,0 UV-I 88 W/m 2,6 km/h (1 Bft)
15.05.2014 19:12 12,4 C 11,7 C 73 % 1034,6 hPa 0,0 l/m 0 min 0 min 0,0 UV-I 86 W/m 15,4 km/h (3 Bft)
15.05.2014 19:14 12,4 C 11,7 C 72 % 1034,6 hPa 0,0 l/m 0 min 0 min 0,0 UV-I 83 W/m 15,4 km/h (3 Bft)
15.05.2014 19:16 12,4 C 11,7 C 73 % 1034,6 hPa 0,0 l/m 0 min 0 min 0,0 UV-I 77 W/m 10,3 km/h (2 Bft)
15.05.2014 19:18 12,4 C 11,7 C 73 % 1034,6 hPa 0,0 l/m 0 min 0 min 0,0 UV-I 74 W/m 2,6 km/h (1 Bft)
15.05.2014 19:20 12,4 C 11,7 C 73 % 1034,6 hPa 0,0 l/m 0 min 0 min 0,0 UV-I 79 W/m 0,0 km/h (0 Bft)
15.05.2014 19:22 12,4 C 11,7 C 73 % 1034,6 hPa 0,0 l/m 0 min 0 min 0,0 UV-I 79 W/m 15,4 km/h (3 Bft)
15.05.2014 19:24 12,4 C 11,7 C 73 % 1034,7 hPa 0,0 l/m 0 min 0 min 0,0 UV-I 79 W/m 5,1 km/h (1 Bft)
15.05.2014 19:26 12,4 C 11,7 C 73 % 1034,7 hPa 0,0 l/m 0 min 0 min 0,0 UV-I 76 W/m 0,0 km/h (0 Bft)
15.05.2014 19:28 12,4 C 11,7 C 73 % 1034,7 hPa 0,0 l/m 0 min 0 min 0,0 UV-I 72 W/m 0,0 km/h (0 Bft)
15.05.2014 19:30 12,4 C 11,7 C 73 % 1034,7 hPa 0,0 l/m 0 min 0 min 0,0 UV-I 69 W/m 7,7 km/h (2 Bft)
15.05.2014 19:32 12,4 C 11,7 C 74 % 1034,7 hPa 0,0 l/m 0 min 0 min 0,0 UV-I 63 W/m 10,3 km/h (2 Bft)
15.05.2014 19:34 12,4 C 11,7 C 73 % 1034,7 hPa 0,0 l/m 0 min 0 min 0,0 UV-I 60 W/m 2,6 km/h (1 Bft)
15.05.2014 19:36 12,4 C 11,7 C 73 % 1034,7 hPa 0,0 l/m 0 min 0 min 0,0 UV-I 54 W/m 10,3 km/h (2 Bft)
15.05.2014 19:38 12,4 C 11,7 C 73 % 1034,7 hPa 0,0 l/m 0 min 0 min 0,0 UV-I 47 W/m 5,1 km/h (1 Bft)
15.05.2014 19:40 12,4 C 11,7 C 73 % 1034,7 hPa 0,0 l/m 0 min 0 min 0,0 UV-I 44 W/m 7,7 km/h (2 Bft)
15.05.2014 19:42 12,4 C 11,7 C 73 % 1034,6 hPa 0,0 l/m 0 min 0 min 0,0 UV-I 42 W/m 7,7 km/h (2 Bft)
15.05.2014 19:44 12,4 C 11,7 C 73 % 1034,6 hPa 0,0 l/m 0 min 0 min 0,0 UV-I 39 W/m 0,0 km/h (0 Bft)
15.05.2014 19:46 12,4 C 11,7 C 74 % 1034,6 hPa 0,0 l/m 0 min 0 min 0,0 UV-I 37 W/m 7,7 km/h (2 Bft)
15.05.2014 19:48 12,3 C 11,1 C 74 % 1034,7 hPa 0,0 l/m 0 min 0 min 0,0 UV-I 33 W/m 5,1 km/h (1 Bft)
15.05.2014 19:50 12,3 C 11,1 C 74 % 1034,6 hPa 0,0 l/m 0 min 0 min 0,0 UV-I 32 W/m 0,0 km/h (0 Bft)
15.05.2014 19:52 12,3 C 11,1 C 74 % 1034,6 hPa 0,0 l/m 0 min 0 min 0,0 UV-I 32 W/m 5,1 km/h (1 Bft)
15.05.2014 19:54 12,3 C 11,1 C 74 % 1034,6 hPa 0,0 l/m 0 min 0 min 0,0 UV-I 33 W/m 0,0 km/h (0 Bft)
15.05.2014 19:56 12,3 C 11,1 C 73 % 1034,6 hPa 0,0 l/m 0 min 0 min 0,0 UV-I 35 W/m 2,6 km/h (1 Bft)
15.05.2014 19:58 12,3 C 11,1 C 73 % 1034,6 hPa 0,0 l/m 0 min 0 min 0,0 UV-I 37 W/m 5,1 km/h (1 Bft)
15.05.2014 20:00 12,3 C 11,1 C 74 % 1034,6 hPa 0,0 l/m 0 min 0 min 0,0 UV-I 32 W/m 10,3 km/h (2 Bft)
15.05.2014 20:02 12,3 C 11,1 C 73 % 1034,5 hPa 0,0 l/m 0 min 0 min 0,0 UV-I 26 W/m 10,3 km/h (2 Bft)
15.05.2014 20:06 12,2 C 11,1 C 74 % 1034,5 hPa 0,0 l/m 0 min 0 min 0,0 UV-I 23 W/m 0,0 km/h (0 Bft)
15.05.2014 20:08 12,2 C 11,1 C 74 % 1034,6 hPa 0,0 l/m 0 min 0 min 0,0 UV-I 23 W/m 0,0 km/h (0 Bft)
15.05.2014 20:10 12,1 C 10,6 C 75 % 1034,6 hPa 0,0 l/m 0 min 0 min 0,0 UV-I 23 W/m 2,6 km/h (1 Bft)
15.05.2014 20:12 12,1 C 10,6 C 75 % 1034,6 hPa 0,0 l/m 0 min 0 min 0,0 UV-I 26 W/m 0,0 km/h (0 Bft)
15.05.2014 20:14 12,0 C 10,6 C 75 % 1034,6 hPa 0,0 l/m 0 min 0 min 0,0 UV-I 26 W/m 0,0 km/h (0 Bft)
15.05.2014 20:16 11,9 C 10,6 C 76 % 1034,6 hPa 0,0 l/m 0 min 0 min 0,0 UV-I 26 W/m 0,0 km/h (0 Bft)
15.05.2014 20:18 11,8 C 10,6 C 77 % 1034,7 hPa 0,0 l/m 0 min 0 min 0,0 UV-I 26 W/m 0,0 km/h (0 Bft)
15.05.2014 20:20 11,7 C 10,6 C 77 % 1034,7 hPa 0,0 l/m 0 min 0 min 0,0 UV-I 26 W/m 0,0 km/h (0 Bft)
15.05.2014 20:22 11,7 C 10,0 C 77 % 1034,7 hPa 0,0 l/m 0 min 0 min 0,0 UV-I 26 W/m 0,0 km/h (0 Bft)
15.05.2014 20:24 11,6 C 10,0 C 77 % 1034,7 hPa 0,0 l/m 0 min 0 min 0,0 UV-I 26 W/m 0,0 km/h (0 Bft)
15.05.2014 20:26 11,6 C 10,0 C 77 % 1034,7 hPa 0,0 l/m 0 min 0 min 0,0 UV-I 25 W/m 0,0 km/h (0 Bft)
15.05.2014 20:28 11,5 C 10,0 C 77 % 1034,7 hPa 0,0 l/m 0 min 0 min 0,0 UV-I 25 W/m 0,0 km/h (0 Bft)
15.05.2014 20:30 11,4 C 9,4 C 78 % 1034,7 hPa 0,0 l/m 0 min 0 min 0,0 UV-I 23 W/m 0,0 km/h (0 Bft)
15.05.2014 20:32 11,4 C 9,4 C 78 % 1034,7 hPa 0,0 l/m 0 min 0 min 0,0 UV-I 23 W/m 0,0 km/h (0 Bft)
15.05.2014 20:34 11,3 C 9,4 C 78 % 1034,7 hPa 0,0 l/m 0 min 0 min 0,0 UV-I 23 W/m 0,0 km/h (0 Bft)
15.05.2014 20:36 11,2 C 9,4 C 79 % 1034,7 hPa 0,0 l/m 0 min 0 min 0,0 UV-I 23 W/m 0,0 km/h (0 Bft)
15.05.2014 20:38 11,1 C 9,4 C 79 % 1034,7 hPa 0,0 l/m 0 min 0 min 0,0 UV-I 21 W/m 0,0 km/h (0 Bft)
15.05.2014 20:40 11,0 C 8,9 C 80 % 1034,7 hPa 0,0 l/m 0 min 0 min 0,0 UV-I 21 W/m 0,0 km/h (0 Bft)
15.05.2014 20:42 10,9 C 8,9 C 81 % 1034,7 hPa 0,0 l/m 0 min 0 min 0,0 UV-I 21 W/m 0,0 km/h (0 Bft)
15.05.2014 20:44 10,8 C 8,9 C 81 % 1034,7 hPa 0,0 l/m 0 min 0 min 0,0 UV-I 19 W/m 0,0 km/h (0 Bft)
15.05.2014 20:46 10,8 C 8,9 C 81 % 1034,7 hPa 0,0 l/m 0 min 0 min 0,0 UV-I 19 W/m 0,0 km/h (0 Bft)
15.05.2014 20:48 10,7 C 8,9 C 82 % 1034,7 hPa 0,0 l/m 0 min 0 min 0,0 UV-I 18 W/m 0,0 km/h (0 Bft)
15.05.2014 20:50 10,7 C 8,9 C 82 % 1034,7 hPa 0,0 l/m 0 min 0 min 0,0 UV-I 18 W/m 0,0 km/h (0 Bft)
15.05.2014 20:52 10,7 C 8,9 C 83 % 1034,7 hPa 0,0 l/m 0 min 0 min 0,0 UV-I 16 W/m 0,0 km/h (0 Bft)
15.05.2014 20:54 10,6 C 8,9 C 83 % 1034,8 hPa 0,0 l/m 0 min 0 min 0,0 UV-I 16 W/m 0,0 km/h (0 Bft)
15.05.2014 20:56 10,6 C 8,9 C 84 % 1034,7 hPa 0,0 l/m 0 min 0 min 0,0 UV-I 16 W/m 0,0 km/h (0 Bft)
15.05.2014 20:58 10,5 C 8,9 C 84 % 1034,7 hPa 0,0 l/m 0 min 0 min 0,0 UV-I 14 W/m 0,0 km/h (0 Bft)
15.05.2014 21:00 10,5 C 8,9 C 84 % 1034,7 hPa 0,0 l/m 0 min 0 min 0,0 UV-I 12 W/m 0,0 km/h (0 Bft)
15.05.2014 21:02 10,5 C 8,3 C 84 % 1034,7 hPa 0,0 l/m 0 min 0 min 0,0 UV-I 11 W/m 0,0 km/h (0 Bft)
15.05.2014 21:06 10,4 C 8,3 C 84 % 1034,7 hPa 0,0 l/m 0 min 0 min 0,0 UV-I 9 W/m 0,0 km/h (0 Bft)
15.05.2014 21:08 10,4 C 8,3 C 85 % 1034,7 hPa 0,0 l/m 0 min 0 min 0,0 UV-I 9 W/m 0,0 km/h (0 Bft)
15.05.2014 21:10 10,4 C 8,3 C 85 % 1034,7 hPa 0,0 l/m 0 min 0 min 0,0 UV-I 7 W/m 0,0 km/h (0 Bft)
15.05.2014 21:12 10,4 C 8,3 C 85 % 1034,8 hPa 0,0 l/m 0 min 0 min 0,0 UV-I 7 W/m 0,0 km/h (0 Bft)
15.05.2014 21:14 10,3 C 8,3 C 85 % 1034,8 hPa 0,0 l/m 0 min 0 min 0,0 UV-I 5 W/m 0,0 km/h (0 Bft)
15.05.2014 21:16 10,4 C 8,3 C 85 % 1034,8 hPa 0,0 l/m 0 min 0 min 0,0 UV-I 5 W/m 0,0 km/h (0 Bft)
15.05.2014 21:18 10,4 C 8,3 C 85 % 1034,8 hPa 0,0 l/m 0 min 0 min 0,0 UV-I 0 W/m 0,0 km/h (0 Bft)
15.05.2014 21:20 10,4 C 8,3 C 85 % 1034,8 hPa 0,0 l/m 0 min 0 min 0,0 UV-I 0 W/m 0,0 km/h (0 Bft)
15.05.2014 21:22 10,4 C 8,9 C 85 % 1034,9 hPa 0,0 l/m 0 min 0 min 0,0 UV-I 0 W/m 0,0 km/h (0 Bft)
15.05.2014 21:24 10,4 C 8,9 C 85 % 1034,9 hPa 0,0 l/m 0 min 0 min 0,0 UV-I 0 W/m 0,0 km/h (0 Bft)
15.05.2014 21:26 10,4 C 8,9 C 85 % 1034,9 hPa 0,0 l/m 0 min 0 min 0,0 UV-I 0 W/m 0,0 km/h (0 Bft)
15.05.2014 21:28 10,4 C 8,9 C 85 % 1034,9 hPa 0,0 l/m 0 min 0 min 0,0 UV-I 0 W/m 0,0 km/h (0 Bft)
15.05.2014 21:30 10,4 C 8,9 C 85 % 1034,9 hPa 0,0 l/m 0 min 0 min 0,0 UV-I 0 W/m 0,0 km/h (0 Bft)
15.05.2014 21:32 10,4 C 8,9 C 85 % 1034,9 hPa 0,0 l/m 0 min 0 min 0,0 UV-I 0 W/m 0,0 km/h (0 Bft)
15.05.2014 21:34 10,4 C 8,9 C 85 % 1034,9 hPa 0,0 l/m 0 min 0 min 0,0 UV-I 0 W/m 0,0 km/h (0 Bft)
15.05.2014 21:36 10,4 C 8,9 C 85 % 1034,9 hPa 0,0 l/m 0 min 0 min 0,0 UV-I 0 W/m 0,0 km/h (0 Bft)
15.05.2014 21:38 10,4 C 8,9 C 85 % 1035,0 hPa 0,0 l/m 0 min 0 min 0,0 UV-I 0 W/m 0,0 km/h (0 Bft)
15.05.2014 21:40 10,4 C 8,9 C 85 % 1034,9 hPa 0,0 l/m 0 min 0 min 0,0 UV-I 0 W/m 0,0 km/h (0 Bft)
15.05.2014 21:42 10,4 C 8,9 C 85 % 1034,9 hPa 0,0 l/m 0 min 0 min 0,0 UV-I 0 W/m 0,0 km/h (0 Bft)
15.05.2014 21:44 10,4 C 8,9 C 85 % 1034,9 hPa 0,0 l/m 0 min 0 min 0,0 UV-I 0 W/m 0,0 km/h (0 Bft)
15.05.2014 21:46 10,4 C 8,9 C 85 % 1034,9 hPa 0,0 l/m 0 min 0 min 0,0 UV-I 0 W/m 0,0 km/h (0 Bft)
15.05.2014 21:48 10,4 C 8,9 C 86 % 1034,9 hPa 0,0 l/m 0 min 0 min 0,0 UV-I 0 W/m 0,0 km/h (0 Bft)
15.05.2014 21:50 10,3 C 8,3 C 86 % 1034,8 hPa 0,0 l/m 0 min 0 min 0,0 UV-I 0 W/m 0,0 km/h (0 Bft)
15.05.2014 21:52 10,3 C 8,3 C 86 % 1034,9 hPa 0,0 l/m 0 min 0 min 0,0 UV-I 0 W/m 0,0 km/h (0 Bft)
15.05.2014 21:54 10,2 C 8,3 C 86 % 1034,8 hPa 0,0 l/m 0 min 0 min 0,0 UV-I 0 W/m 0,0 km/h (0 Bft)
15.05.2014 21:56 10,1 C 8,3 C 87 % 1034,9 hPa 0,0 l/m 0 min 0 min 0,0 UV-I 0 W/m 0,0 km/h (0 Bft)
15.05.2014 21:58 10,0 C 8,3 C 87 % 1034,9 hPa 0,0 l/m 0 min 0 min 0,0 UV-I 0 W/m 0,0 km/h (0 Bft)
15.05.2014 22:00 9,9 C 8,3 C 87 % 1034,9 hPa 0,0 l/m 0 min 0 min 0,0 UV-I 0 W/m 0,0 km/h (0 Bft)
15.05.2014 22:02 9,9 C 7,8 C 88 % 1034,9 hPa 0,0 l/m 0 min 0 min 0,0 UV-I 0 W/m 0,0 km/h (0 Bft)
15.05.2014 22:06 9,7 C 7,8 C 88 % 1034,8 hPa 0,0 l/m 0 min 0 min 0,0 UV-I 0 W/m 0,0 km/h (0 Bft)
15.05.2014 22:08 9,7 C 7,8 C 89 % 1034,8 hPa 0,0 l/m 0 min 0 min 0,0 UV-I 0 W/m 0,0 km/h (0 Bft)
15.05.2014 22:10 9,7 C 7,8 C 89 % 1034,8 hPa 0,0 l/m 0 min 0 min 0,0 UV-I 0 W/m 0,0 km/h (0 Bft)
15.05.2014 22:12 9,7 C 7,8 C 89 % 1034,8 hPa 0,0 l/m 0 min 0 min 0,0 UV-I 0 W/m 0,0 km/h (0 Bft)
15.05.2014 22:14 9,6 C 7,2 C 89 % 1034,8 hPa 0,0 l/m 0 min 0 min 0,0 UV-I 0 W/m 0,0 km/h (0 Bft)
15.05.2014 22:16 9,4 C 7,2 C 89 % 1034,9 hPa 0,0 l/m 0 min 0 min 0,0 UV-I 0 W/m 0,0 km/h (0 Bft)
15.05.2014 22:18 9,3 C 7,2 C 90 % 1034,8 hPa 0,0 l/m 0 min 0 min 0,0 UV-I 0 W/m 0,0 km/h (0 Bft)
15.05.2014 22:20 9,2 C 7,2 C 90 % 1034,9 hPa 0,0 l/m 0 min 0 min 0,0 UV-I 0 W/m 0,0 km/h (0 Bft)
15.05.2014 22:22 9,1 C 7,2 C 90 % 1034,8 hPa 0,0 l/m 0 min 0 min 0,0 UV-I 0 W/m 0,0 km/h (0 Bft)
15.05.2014 22:24 9,1 C 7,2 C 90 % 1034,9 hPa 0,0 l/m 0 min 0 min 0,0 UV-I 0 W/m 0,0 km/h (0 Bft)
15.05.2014 22:26 9,0 C 7,2 C 90 % 1034,9 hPa 0,0 l/m 0 min 0 min 0,0 UV-I 0 W/m 0,0 km/h (0 Bft)
15.05.2014 22:28 8,9 C 7,2 C 90 % 1034,9 hPa 0,0 l/m 0 min 0 min 0,0 UV-I 0 W/m 0,0 km/h (0 Bft)
15.05.2014 22:30 8,8 C 6,7 C 91 % 1034,9 hPa 0,0 l/m 0 min 0 min 0,0 UV-I 0 W/m 0,0 km/h (0 Bft)
15.05.2014 22:32 8,8 C 6,7 C 91 % 1034,9 hPa 0,0 l/m 0 min 0 min 0,0 UV-I 0 W/m 0,0 km/h (0 Bft)
15.05.2014 22:34 8,8 C 6,7 C 91 % 1034,8 hPa 0,0 l/m 0 min 0 min 0,0 UV-I 0 W/m 0,0 km/h (0 Bft)
15.05.2014 22:36 8,7 C 6,7 C 91 % 1034,9 hPa 0,0 l/m 0 min 0 min 0,0 UV-I 0 W/m 0,0 km/h (0 Bft)
15.05.2014 22:38 8,7 C 6,7 C 91 % 1034,9 hPa 0,0 l/m 0 min 0 min 0,0 UV-I 0 W/m 0,0 km/h (0 Bft)
15.05.2014 22:40 8,6 C 6,7 C 91 % 1034,9 hPa 0,0 l/m 0 min 0 min 0,0 UV-I 0 W/m 0,0 km/h (0 Bft)
15.05.2014 22:42 8,6 C 6,7 C 91 % 1035,0 hPa 0,0 l/m 0 min 0 min 0,0 UV-I 0 W/m 0,0 km/h (0 Bft)
15.05.2014 22:44 8,6 C 6,7 C 91 % 1035,0 hPa 0,0 l/m 0 min 0 min 0,0 UV-I 0 W/m 0,0 km/h (0 Bft)
15.05.2014 22:46 8,5 C 6,7 C 91 % 1035,0 hPa 0,0 l/m 0 min 0 min 0,0 UV-I 0 W/m 0,0 km/h (0 Bft)
15.05.2014 22:48 8,4 C 6,7 C 92 % 1035,0 hPa 0,0 l/m 0 min 0 min 0,0 UV-I 0 W/m 0,0 km/h (0 Bft)
15.05.2014 22:50 8,4 C 6,7 C 92 % 1035,0 hPa 0,0 l/m 0 min 0 min 0,0 UV-I 0 W/m 0,0 km/h (0 Bft)
15.05.2014 22:52 8,3 C 6,7 C 92 % 1035,0 hPa 0,0 l/m 0 min 0 min 0,0 UV-I 0 W/m 0,0 km/h (0 Bft)
15.05.2014 22:54 8,3 C 6,1 C 92 % 1035,0 hPa 0,0 l/m 0 min 0 min 0,0 UV-I 0 W/m 0,0 km/h (0 Bft)
15.05.2014 22:56 8,2 C 6,1 C 92 % 1035,0 hPa 0,0 l/m 0 min 0 min 0,0 UV-I 0 W/m 0,0 km/h (0 Bft)
15.05.2014 22:58 8,2 C 6,1 C 92 % 1035,0 hPa 0,0 l/m 0 min 0 min 0,0 UV-I 0 W/m 0,0 km/h (0 Bft)
15.05.2014 23:00 8,2 C 6,1 C 93 % 1035,1 hPa 0,0 l/m 0 min 0 min 0,0 UV-I 0 W/m 0,0 km/h (0 Bft)
15.05.2014 23:02 8,2 C 6,1 C 93 % 1035,1 hPa 0,0 l/m 0 min 0 min 0,0 UV-I 0 W/m 0,0 km/h (0 Bft)
15.05.2014 23:06 8,1 C 6,1 C 93 % 1035,2 hPa 0,0 l/m 0 min 0 min 0,0 UV-I 0 W/m 0,0 km/h (0 Bft)
15.05.2014 23:08 8,0 C 6,1 C 93 % 1035,2 hPa 0,0 l/m 0 min 0 min 0,0 UV-I 0 W/m 0,0 km/h (0 Bft)
15.05.2014 23:10 7,9 C 6,1 C 93 % 1035,2 hPa 0,0 l/m 0 min 0 min 0,0 UV-I 0 W/m 0,0 km/h (0 Bft)
15.05.2014 23:12 7,9 C 6,1 C 93 % 1035,2 hPa 0,0 l/m 0 min 0 min 0,0 UV-I 0 W/m 0,0 km/h (0 Bft)
15.05.2014 23:14 7,8 C 6,1 C 94 % 1035,2 hPa 0,0 l/m 0 min 0 min 0,0 UV-I 0 W/m 0,0 km/h (0 Bft)
15.05.2014 23:16 7,8 C 6,1 C 93 % 1035,3 hPa 0,0 l/m 0 min 0 min 0,0 UV-I 0 W/m 0,0 km/h (0 Bft)
15.05.2014 23:18 7,8 C 6,1 C 94 % 1035,3 hPa 0,0 l/m 0 min 0 min 0,0 UV-I 0 W/m 0,0 km/h (0 Bft)
15.05.2014 23:20 7,7 C 6,1 C 94 % 1035,3 hPa 0,0 l/m 0 min 0 min 0,0 UV-I 0 W/m 0,0 km/h (0 Bft)
15.05.2014 23:22 7,7 C 5,6 C 94 % 1035,3 hPa 0,0 l/m 0 min 0 min 0,0 UV-I 0 W/m 0,0 km/h (0 Bft)
15.05.2014 23:24 7,7 C 5,6 C 94 % 1035,3 hPa 0,0 l/m 0 min 0 min 0,0 UV-I 0 W/m 0,0 km/h (0 Bft)
15.05.2014 23:26 7,6 C 5,6 C 94 % 1035,3 hPa 0,0 l/m 0 min 0 min 0,0 UV-I 0 W/m 0,0 km/h (0 Bft)
15.05.2014 23:28 7,6 C 5,6 C 94 % 1035,2 hPa 0,0 l/m 0 min 0 min 0,0 UV-I 0 W/m 0,0 km/h (0 Bft)
15.05.2014 23:30 7,6 C 5,6 C 94 % 1035,2 hPa 0,0 l/m 0 min 0 min 0,0 UV-I 0 W/m 0,0 km/h (0 Bft)
15.05.2014 23:32 7,5 C 5,6 C 94 % 1035,2 hPa 0,0 l/m 0 min 0 min 0,0 UV-I 0 W/m 0,0 km/h (0 Bft)
15.05.2014 23:34 7,5 C 5,6 C 94 % 1035,2 hPa 0,0 l/m 0 min 0 min 0,0 UV-I 0 W/m 0,0 km/h (0 Bft)
15.05.2014 23:36 7,4 C 5,6 C 94 % 1035,2 hPa 0,0 l/m 0 min 0 min 0,0 UV-I 0 W/m 0,0 km/h (0 Bft)
15.05.2014 23:38 7,4 C 5,6 C 94 % 1035,2 hPa 0,0 l/m 0 min 0 min 0,0 UV-I 0 W/m 0,0 km/h (0 Bft)
15.05.2014 23:40 7,3 C 5,6 C 94 % 1035,2 hPa 0,0 l/m 0 min 0 min 0,0 UV-I 0 W/m 0,0 km/h (0 Bft)
15.05.2014 23:42 7,3 C 5,6 C 94 % 1035,2 hPa 0,0 l/m 0 min 0 min 0,0 UV-I 0 W/m 0,0 km/h (0 Bft)
15.05.2014 23:44 7,2 C 5,6 C 94 % 1035,2 hPa 0,0 l/m 0 min 0 min 0,0 UV-I 0 W/m 0,0 km/h (0 Bft)
15.05.2014 23:46 7,2 C 5,6 C 94 % 1035,1 hPa 0,0 l/m 0 min 0 min 0,0 UV-I 0 W/m 0,0 km/h (0 Bft)
15.05.2014 23:48 7,2 C 5,6 C 94 % 1035,1 hPa 0,0 l/m 0 min 0 min 0,0 UV-I 0 W/m 0,0 km/h (0 Bft)
15.05.2014 23:50 7,1 C 5,6 C 95 % 1035,0 hPa 0,0 l/m 0 min 0 min 0,0 UV-I 0 W/m 0,0 km/h (0 Bft)
15.05.2014 23:52 7,1 C 5,6 C 95 % 1035,0 hPa 0,0 l/m 0 min 0 min 0,0 UV-I 0 W/m 0,0 km/h (0 Bft)
15.05.2014 23:54 7,1 C 5,6 C 95 % 1035,1 hPa 0,0 l/m 0 min 0 min 0,0 UV-I 0 W/m 0,0 km/h (0 Bft)
15.05.2014 23:56 7,1 C 5,6 C 95 % 1035,1 hPa 0,0 l/m 0 min 0 min 0,0 UV-I 0 W/m 0,0 km/h (0 Bft)
15.05.2014 23:58 7,1 C 5,6 C 95 % 1035,0 hPa 0,0 l/m 0 min 0 min 0,0 UV-I 0 W/m 0,0 km/h (0 Bft)
_ Min-Zeit 05:48 05:26 13:30 00:00 - - - - - 00:00
Minimum _ 3,3 C 1,7 C 69 % 1031,6 hPa - - - - - 0,0 km/h (0 Bft)
_ Max-Zeit 14:02 13:56 03:34 12:14 00:00 13:12 00:00 13:56 14:00 14:34
Maximum _ 13,7 C 15,6 C 100 % 1035,6 hPa 0,0 l/m 2 min 0 min 4,6 UV-I 1027 W/m 23,2 km/h
N-NW (4 Bft)
Durchschnitt _ 8,7 C 7,9 C 83 % 1034,2 hPa #0,0 l/m #2:00 h #0 min. 1,4 UV-I 204 W/m 4,9 km/h (1 Bft)
© 2014 W. Hausmann